<?xml version="1.0" encoding="utf-8"?>
<gpx xmlns:xsi="http://www.w3.org/2001/XMLSchema-instance" xmlns:xsd="http://www.w3.org/2001/XMLSchema" version="1.1" creator="Shapelink.com" xmlns="http://www.topografix.com/GPX/1/1" xmlns:gpxtpx="http://www.garmin.com/xmlschemas/TrackPointExtension/v1">
  <metadata>
    <name>Gåing 10.02 km, 2012-03-07</name>
    <desc></desc>
    <author><name>Mikael Blom</name></author> 
    <time>2012-03-07T14:29:35Z</time>
  </metadata>
  <trk>
    <name>Gåing 10.02 km, 2012-03-07</name>
    <trkseg>
      <trkpt lat="59.9789502" lon="17.7398231">
        <ele>22.2476</ele>
        <time>2012-03-07T14:29:35Z</time>
      </trkpt>
      <trkpt lat="59.978938" lon="17.7397374">
        <ele>23.6896</ele>
        <time>2012-03-07T14:29:40Z</time>
      </trkpt>
      <trkpt lat="59.9789652" lon="17.7396174">
        <ele>27.5349</ele>
        <time>2012-03-07T14:29:45Z</time>
      </trkpt>
      <trkpt lat="59.9789654" lon="17.7395263">
        <ele>29.9381</ele>
        <time>2012-03-07T14:29:50Z</time>
      </trkpt>
      <trkpt lat="59.9789542" lon="17.7395199">
        <ele>34.7449</ele>
        <time>2012-03-07T14:29:52Z</time>
      </trkpt>
      <trkpt lat="59.9788965" lon="17.7395087">
        <ele>40.5128</ele>
        <time>2012-03-07T14:29:57Z</time>
      </trkpt>
      <trkpt lat="59.9789143" lon="17.7393641">
        <ele>35.2255</ele>
        <time>2012-03-07T14:30:02Z</time>
      </trkpt>
      <trkpt lat="59.9789847" lon="17.7392548">
        <ele>29.9381</ele>
        <time>2012-03-07T14:30:08Z</time>
      </trkpt>
      <trkpt lat="59.9790032" lon="17.7392464">
        <ele>30.4188</ele>
        <time>2012-03-07T14:30:09Z</time>
      </trkpt>
      <trkpt lat="59.9790659" lon="17.7391972">
        <ele>26.5736</ele>
        <time>2012-03-07T14:30:13Z</time>
      </trkpt>
      <trkpt lat="59.9792047" lon="17.7391557">
        <ele>28.9769</ele>
        <time>2012-03-07T14:30:22Z</time>
      </trkpt>
      <trkpt lat="59.9793264" lon="17.7391274">
        <ele>37.6287</ele>
        <time>2012-03-07T14:30:30Z</time>
      </trkpt>
      <trkpt lat="59.9793551" lon="17.7391078">
        <ele>38.5901</ele>
        <time>2012-03-07T14:30:37Z</time>
      </trkpt>
      <trkpt lat="59.9792773" lon="17.739093">
        <ele>36.6675</ele>
        <time>2012-03-07T14:30:42Z</time>
      </trkpt>
      <trkpt lat="59.9792306" lon="17.7391465">
        <ele>36.1868</ele>
        <time>2012-03-07T14:30:46Z</time>
      </trkpt>
      <trkpt lat="59.979191" lon="17.7392217">
        <ele>39.5513</ele>
        <time>2012-03-07T14:30:52Z</time>
      </trkpt>
      <trkpt lat="59.9790547" lon="17.7393383">
        <ele>33.3029</ele>
        <time>2012-03-07T14:30:59Z</time>
      </trkpt>
      <trkpt lat="59.979019" lon="17.7393739">
        <ele>30.8995</ele>
        <time>2012-03-07T14:31:01Z</time>
      </trkpt>
      <trkpt lat="59.9789567" lon="17.7393951">
        <ele>28.9769</ele>
        <time>2012-03-07T14:31:05Z</time>
      </trkpt>
      <trkpt lat="59.9788199" lon="17.7395183">
        <ele>20.325</ele>
        <time>2012-03-07T14:31:11Z</time>
      </trkpt>
      <trkpt lat="59.978724" lon="17.7395662">
        <ele>16.4797</ele>
        <time>2012-03-07T14:31:17Z</time>
      </trkpt>
      <trkpt lat="59.9786475" lon="17.7395879">
        <ele>13.1151</ele>
        <time>2012-03-07T14:31:22Z</time>
      </trkpt>
      <trkpt lat="59.9785864" lon="17.7395966">
        <ele>14.0764</ele>
        <time>2012-03-07T14:31:26Z</time>
      </trkpt>
      <trkpt lat="59.9785454" lon="17.7395636">
        <ele>14.557</ele>
        <time>2012-03-07T14:31:29Z</time>
      </trkpt>
      <trkpt lat="59.9785346" lon="17.7394978">
        <ele>23.209</ele>
        <time>2012-03-07T14:31:33Z</time>
      </trkpt>
      <trkpt lat="59.9784735" lon="17.7394553">
        <ele>28.4962</ele>
        <time>2012-03-07T14:31:39Z</time>
      </trkpt>
      <trkpt lat="59.9783901" lon="17.7394288">
        <ele>29.9381</ele>
        <time>2012-03-07T14:31:44Z</time>
      </trkpt>
      <trkpt lat="59.9782925" lon="17.739372">
        <ele>31.8607</ele>
        <time>2012-03-07T14:31:50Z</time>
      </trkpt>
      <trkpt lat="59.9782083" lon="17.7393222">
        <ele>32.8223</ele>
        <time>2012-03-07T14:31:55Z</time>
      </trkpt>
      <trkpt lat="59.9781884" lon="17.7393064">
        <ele>33.3029</ele>
        <time>2012-03-07T14:31:56Z</time>
      </trkpt>
      <trkpt lat="59.978099" lon="17.7392914">
        <ele>34.7449</ele>
        <time>2012-03-07T14:32:01Z</time>
      </trkpt>
      <trkpt lat="59.9780853" lon="17.7392693">
        <ele>35.2255</ele>
        <time>2012-03-07T14:32:02Z</time>
      </trkpt>
      <trkpt lat="59.9779897" lon="17.7392875">
        <ele>34.2642</ele>
        <time>2012-03-07T14:32:09Z</time>
      </trkpt>
      <trkpt lat="59.9779108" lon="17.7392833">
        <ele>32.8223</ele>
        <time>2012-03-07T14:32:14Z</time>
      </trkpt>
      <trkpt lat="59.9778576" lon="17.7392626">
        <ele>31.8607</ele>
        <time>2012-03-07T14:32:18Z</time>
      </trkpt>
      <trkpt lat="59.9778369" lon="17.739234">
        <ele>31.3801</ele>
        <time>2012-03-07T14:32:20Z</time>
      </trkpt>
      <trkpt lat="59.9777887" lon="17.7392367">
        <ele>30.4188</ele>
        <time>2012-03-07T14:32:24Z</time>
      </trkpt>
      <trkpt lat="59.9776877" lon="17.7391645">
        <ele>32.8223</ele>
        <time>2012-03-07T14:32:30Z</time>
      </trkpt>
      <trkpt lat="59.977581" lon="17.7391044">
        <ele>34.2642</ele>
        <time>2012-03-07T14:32:37Z</time>
      </trkpt>
      <trkpt lat="59.9775642" lon="17.7390943">
        <ele>34.7449</ele>
        <time>2012-03-07T14:32:38Z</time>
      </trkpt>
      <trkpt lat="59.9775043" lon="17.7391337">
        <ele>33.7834</ele>
        <time>2012-03-07T14:32:44Z</time>
      </trkpt>
      <trkpt lat="59.9774614" lon="17.739136">
        <ele>33.3029</ele>
        <time>2012-03-07T14:32:48Z</time>
      </trkpt>
      <trkpt lat="59.97738" lon="17.7391912">
        <ele>30.4188</ele>
        <time>2012-03-07T14:32:55Z</time>
      </trkpt>
      <trkpt lat="59.9773324" lon="17.7392279">
        <ele>28.0155</ele>
        <time>2012-03-07T14:32:59Z</time>
      </trkpt>
      <trkpt lat="59.9772988" lon="17.7392449">
        <ele>27.5349</ele>
        <time>2012-03-07T14:33:02Z</time>
      </trkpt>
      <trkpt lat="59.9772582" lon="17.7392578">
        <ele>26.5736</ele>
        <time>2012-03-07T14:33:05Z</time>
      </trkpt>
      <trkpt lat="59.9771816" lon="17.7393174">
        <ele>26.5736</ele>
        <time>2012-03-07T14:33:10Z</time>
      </trkpt>
      <trkpt lat="59.9771187" lon="17.739381">
        <ele>27.0543</ele>
        <time>2012-03-07T14:33:15Z</time>
      </trkpt>
      <trkpt lat="59.9770337" lon="17.7394294">
        <ele>28.0155</ele>
        <time>2012-03-07T14:33:21Z</time>
      </trkpt>
      <trkpt lat="59.9769473" lon="17.7394803">
        <ele>28.0155</ele>
        <time>2012-03-07T14:33:27Z</time>
      </trkpt>
      <trkpt lat="59.9768794" lon="17.7395417">
        <ele>28.0155</ele>
        <time>2012-03-07T14:33:31Z</time>
      </trkpt>
      <trkpt lat="59.9768188" lon="17.7395631">
        <ele>28.0155</ele>
        <time>2012-03-07T14:33:35Z</time>
      </trkpt>
      <trkpt lat="59.9767417" lon="17.7395692">
        <ele>28.0155</ele>
        <time>2012-03-07T14:33:40Z</time>
      </trkpt>
      <trkpt lat="59.9766761" lon="17.7395766">
        <ele>30.8995</ele>
        <time>2012-03-07T14:33:45Z</time>
      </trkpt>
      <trkpt lat="59.976607" lon="17.7395987">
        <ele>31.8607</ele>
        <time>2012-03-07T14:33:49Z</time>
      </trkpt>
      <trkpt lat="59.9765418" lon="17.7396803">
        <ele>30.4188</ele>
        <time>2012-03-07T14:33:54Z</time>
      </trkpt>
      <trkpt lat="59.976501" lon="17.739682">
        <ele>30.8995</ele>
        <time>2012-03-07T14:33:58Z</time>
      </trkpt>
      <trkpt lat="59.9764454" lon="17.7396977">
        <ele>32.8223</ele>
        <time>2012-03-07T14:34:03Z</time>
      </trkpt>
      <trkpt lat="59.9763574" lon="17.7397945">
        <ele>34.7449</ele>
        <time>2012-03-07T14:34:11Z</time>
      </trkpt>
      <trkpt lat="59.9763472" lon="17.7398148">
        <ele>34.7449</ele>
        <time>2012-03-07T14:34:12Z</time>
      </trkpt>
      <trkpt lat="59.9763342" lon="17.7398551">
        <ele>35.2255</ele>
        <time>2012-03-07T14:34:14Z</time>
      </trkpt>
      <trkpt lat="59.9762484" lon="17.7398781">
        <ele>35.2255</ele>
        <time>2012-03-07T14:34:20Z</time>
      </trkpt>
      <trkpt lat="59.9761966" lon="17.7398002">
        <ele>35.2255</ele>
        <time>2012-03-07T14:34:24Z</time>
      </trkpt>
      <trkpt lat="59.9761899" lon="17.7397706">
        <ele>35.2255</ele>
        <time>2012-03-07T14:34:25Z</time>
      </trkpt>
      <trkpt lat="59.9761239" lon="17.7396693">
        <ele>34.7449</ele>
        <time>2012-03-07T14:34:30Z</time>
      </trkpt>
      <trkpt lat="59.9760885" lon="17.7395476">
        <ele>34.7449</ele>
        <time>2012-03-07T14:34:34Z</time>
      </trkpt>
      <trkpt lat="59.9760319" lon="17.7394862">
        <ele>32.3416</ele>
        <time>2012-03-07T14:34:38Z</time>
      </trkpt>
      <trkpt lat="59.9759506" lon="17.7394088">
        <ele>29.4575</ele>
        <time>2012-03-07T14:34:44Z</time>
      </trkpt>
      <trkpt lat="59.9759" lon="17.7393331">
        <ele>27.5349</ele>
        <time>2012-03-07T14:34:48Z</time>
      </trkpt>
      <trkpt lat="59.9758575" lon="17.739264">
        <ele>25.1317</ele>
        <time>2012-03-07T14:34:52Z</time>
      </trkpt>
      <trkpt lat="59.9758415" lon="17.7392241">
        <ele>24.651</ele>
        <time>2012-03-07T14:34:54Z</time>
      </trkpt>
      <trkpt lat="59.975781" lon="17.7391104">
        <ele>22.7283</ele>
        <time>2012-03-07T14:35:00Z</time>
      </trkpt>
      <trkpt lat="59.9757056" lon="17.7389575">
        <ele>19.8444</ele>
        <time>2012-03-07T14:35:07Z</time>
      </trkpt>
      <trkpt lat="59.9756149" lon="17.7387745">
        <ele>18.4023</ele>
        <time>2012-03-07T14:35:15Z</time>
      </trkpt>
      <trkpt lat="59.9755664" lon="17.7386901">
        <ele>17.4412</ele>
        <time>2012-03-07T14:35:19Z</time>
      </trkpt>
      <trkpt lat="59.9755281" lon="17.7386077">
        <ele>16.4797</ele>
        <time>2012-03-07T14:35:23Z</time>
      </trkpt>
      <trkpt lat="59.9754462" lon="17.7384784">
        <ele>16.4797</ele>
        <time>2012-03-07T14:35:30Z</time>
      </trkpt>
      <trkpt lat="59.9753975" lon="17.7383654">
        <ele>16.9604</ele>
        <time>2012-03-07T14:35:35Z</time>
      </trkpt>
      <trkpt lat="59.9753085" lon="17.7382158">
        <ele>17.4412</ele>
        <time>2012-03-07T14:35:43Z</time>
      </trkpt>
      <trkpt lat="59.9752458" lon="17.7381345">
        <ele>17.9218</ele>
        <time>2012-03-07T14:35:48Z</time>
      </trkpt>
      <trkpt lat="59.975178" lon="17.7380152">
        <ele>18.4023</ele>
        <time>2012-03-07T14:35:54Z</time>
      </trkpt>
      <trkpt lat="59.9751033" lon="17.7378987">
        <ele>17.4412</ele>
        <time>2012-03-07T14:36:00Z</time>
      </trkpt>
      <trkpt lat="59.9750215" lon="17.7377657">
        <ele>15.999</ele>
        <time>2012-03-07T14:36:07Z</time>
      </trkpt>
      <trkpt lat="59.9749349" lon="17.7376044">
        <ele>15.999</ele>
        <time>2012-03-07T14:36:15Z</time>
      </trkpt>
      <trkpt lat="59.9748599" lon="17.7374817">
        <ele>15.0377</ele>
        <time>2012-03-07T14:36:21Z</time>
      </trkpt>
      <trkpt lat="59.9748397" lon="17.7374345">
        <ele>15.0377</ele>
        <time>2012-03-07T14:36:23Z</time>
      </trkpt>
      <trkpt lat="59.9747954" lon="17.7372657">
        <ele>14.557</ele>
        <time>2012-03-07T14:36:29Z</time>
      </trkpt>
      <trkpt lat="59.9747711" lon="17.7371833">
        <ele>15.0377</ele>
        <time>2012-03-07T14:36:32Z</time>
      </trkpt>
      <trkpt lat="59.974706" lon="17.7370086">
        <ele>15.999</ele>
        <time>2012-03-07T14:36:39Z</time>
      </trkpt>
      <trkpt lat="59.9746951" lon="17.7369849">
        <ele>16.4797</ele>
        <time>2012-03-07T14:36:40Z</time>
      </trkpt>
      <trkpt lat="59.9746495" lon="17.7368502">
        <ele>17.9218</ele>
        <time>2012-03-07T14:36:45Z</time>
      </trkpt>
      <trkpt lat="59.974597" lon="17.7366972">
        <ele>18.8831</ele>
        <time>2012-03-07T14:36:51Z</time>
      </trkpt>
      <trkpt lat="59.9745721" lon="17.73661">
        <ele>20.325</ele>
        <time>2012-03-07T14:36:54Z</time>
      </trkpt>
      <trkpt lat="59.9745048" lon="17.7363809">
        <ele>22.7283</ele>
        <time>2012-03-07T14:37:01Z</time>
      </trkpt>
      <trkpt lat="59.9744917" lon="17.7363357">
        <ele>23.6896</ele>
        <time>2012-03-07T14:37:03Z</time>
      </trkpt>
      <trkpt lat="59.9744618" lon="17.7361401">
        <ele>26.5736</ele>
        <time>2012-03-07T14:37:09Z</time>
      </trkpt>
      <trkpt lat="59.9744495" lon="17.736086">
        <ele>26.5736</ele>
        <time>2012-03-07T14:37:11Z</time>
      </trkpt>
      <trkpt lat="59.9743977" lon="17.7358956">
        <ele>27.0543</ele>
        <time>2012-03-07T14:37:19Z</time>
      </trkpt>
      <trkpt lat="59.9743539" lon="17.735655">
        <ele>27.0543</ele>
        <time>2012-03-07T14:37:28Z</time>
      </trkpt>
      <trkpt lat="59.9743266" lon="17.7354968">
        <ele>26.5736</ele>
        <time>2012-03-07T14:37:34Z</time>
      </trkpt>
      <trkpt lat="59.9742978" lon="17.7352839">
        <ele>26.5736</ele>
        <time>2012-03-07T14:37:41Z</time>
      </trkpt>
      <trkpt lat="59.974276" lon="17.7350896">
        <ele>26.5736</ele>
        <time>2012-03-07T14:37:47Z</time>
      </trkpt>
      <trkpt lat="59.9742516" lon="17.7348217">
        <ele>26.5736</ele>
        <time>2012-03-07T14:37:55Z</time>
      </trkpt>
      <trkpt lat="59.9742451" lon="17.7345735">
        <ele>26.5736</ele>
        <time>2012-03-07T14:38:03Z</time>
      </trkpt>
      <trkpt lat="59.9742469" lon="17.7343271">
        <ele>26.0929</ele>
        <time>2012-03-07T14:38:11Z</time>
      </trkpt>
      <trkpt lat="59.9742631" lon="17.7340372">
        <ele>25.1317</ele>
        <time>2012-03-07T14:38:21Z</time>
      </trkpt>
      <trkpt lat="59.9742724" lon="17.7338411">
        <ele>24.651</ele>
        <time>2012-03-07T14:38:28Z</time>
      </trkpt>
      <trkpt lat="59.9742906" lon="17.7336335">
        <ele>24.651</ele>
        <time>2012-03-07T14:38:35Z</time>
      </trkpt>
      <trkpt lat="59.974304" lon="17.7332934">
        <ele>26.0929</ele>
        <time>2012-03-07T14:38:46Z</time>
      </trkpt>
      <trkpt lat="59.9743148" lon="17.732944">
        <ele>27.5349</ele>
        <time>2012-03-07T14:38:57Z</time>
      </trkpt>
      <trkpt lat="59.9743126" lon="17.7327948">
        <ele>27.5349</ele>
        <time>2012-03-07T14:39:02Z</time>
      </trkpt>
      <trkpt lat="59.9743096" lon="17.7325074">
        <ele>29.4575</ele>
        <time>2012-03-07T14:39:11Z</time>
      </trkpt>
      <trkpt lat="59.9743061" lon="17.7322332">
        <ele>29.4575</ele>
        <time>2012-03-07T14:39:20Z</time>
      </trkpt>
      <trkpt lat="59.9743043" lon="17.7320297">
        <ele>28.9769</ele>
        <time>2012-03-07T14:39:27Z</time>
      </trkpt>
      <trkpt lat="59.9743047" lon="17.7317415">
        <ele>28.4962</ele>
        <time>2012-03-07T14:39:37Z</time>
      </trkpt>
      <trkpt lat="59.9743025" lon="17.7314743">
        <ele>27.5349</ele>
        <time>2012-03-07T14:39:46Z</time>
      </trkpt>
      <trkpt lat="59.9743085" lon="17.7312863">
        <ele>27.5349</ele>
        <time>2012-03-07T14:39:53Z</time>
      </trkpt>
      <trkpt lat="59.9743194" lon="17.7310993">
        <ele>28.0155</ele>
        <time>2012-03-07T14:39:59Z</time>
      </trkpt>
      <trkpt lat="59.9743377" lon="17.7308701">
        <ele>28.0155</ele>
        <time>2012-03-07T14:40:07Z</time>
      </trkpt>
      <trkpt lat="59.9743475" lon="17.7306396">
        <ele>28.0155</ele>
        <time>2012-03-07T14:40:14Z</time>
      </trkpt>
      <trkpt lat="59.9743652" lon="17.7303771">
        <ele>28.4962</ele>
        <time>2012-03-07T14:40:22Z</time>
      </trkpt>
      <trkpt lat="59.9743898" lon="17.7301694">
        <ele>28.4962</ele>
        <time>2012-03-07T14:40:29Z</time>
      </trkpt>
      <trkpt lat="59.9744123" lon="17.7299097">
        <ele>28.0155</ele>
        <time>2012-03-07T14:40:38Z</time>
      </trkpt>
      <trkpt lat="59.9744261" lon="17.7296383">
        <ele>28.4962</ele>
        <time>2012-03-07T14:40:47Z</time>
      </trkpt>
      <trkpt lat="59.9744383" lon="17.729397">
        <ele>29.9381</ele>
        <time>2012-03-07T14:40:55Z</time>
      </trkpt>
      <trkpt lat="59.9744233" lon="17.729193">
        <ele>28.9769</ele>
        <time>2012-03-07T14:41:02Z</time>
      </trkpt>
      <trkpt lat="59.9744128" lon="17.7289195">
        <ele>28.9769</ele>
        <time>2012-03-07T14:41:11Z</time>
      </trkpt>
      <trkpt lat="59.9744022" lon="17.7285935">
        <ele>27.5349</ele>
        <time>2012-03-07T14:41:22Z</time>
      </trkpt>
      <trkpt lat="59.9744083" lon="17.7283585">
        <ele>27.5349</ele>
        <time>2012-03-07T14:41:30Z</time>
      </trkpt>
      <trkpt lat="59.974404" lon="17.7281627">
        <ele>26.5736</ele>
        <time>2012-03-07T14:41:37Z</time>
      </trkpt>
      <trkpt lat="59.9744" lon="17.7279548">
        <ele>25.1317</ele>
        <time>2012-03-07T14:41:44Z</time>
      </trkpt>
      <trkpt lat="59.9743916" lon="17.7277324">
        <ele>25.1317</ele>
        <time>2012-03-07T14:41:51Z</time>
      </trkpt>
      <trkpt lat="59.9743828" lon="17.7275551">
        <ele>25.6123</ele>
        <time>2012-03-07T14:41:57Z</time>
      </trkpt>
      <trkpt lat="59.974377" lon="17.7273111">
        <ele>25.1317</ele>
        <time>2012-03-07T14:42:05Z</time>
      </trkpt>
      <trkpt lat="59.9743722" lon="17.7272218">
        <ele>24.651</ele>
        <time>2012-03-07T14:42:08Z</time>
      </trkpt>
      <trkpt lat="59.9743755" lon="17.7270006">
        <ele>23.6896</ele>
        <time>2012-03-07T14:42:16Z</time>
      </trkpt>
      <trkpt lat="59.9743743" lon="17.7268033">
        <ele>24.1703</ele>
        <time>2012-03-07T14:42:22Z</time>
      </trkpt>
      <trkpt lat="59.9743709" lon="17.7266121">
        <ele>25.1317</ele>
        <time>2012-03-07T14:42:27Z</time>
      </trkpt>
      <trkpt lat="59.9743615" lon="17.7263462">
        <ele>24.651</ele>
        <time>2012-03-07T14:42:35Z</time>
      </trkpt>
      <trkpt lat="59.9743568" lon="17.7261237">
        <ele>24.651</ele>
        <time>2012-03-07T14:42:43Z</time>
      </trkpt>
      <trkpt lat="59.9743299" lon="17.7258287">
        <ele>26.0929</ele>
        <time>2012-03-07T14:42:52Z</time>
      </trkpt>
      <trkpt lat="59.9742986" lon="17.7254792">
        <ele>25.6123</ele>
        <time>2012-03-07T14:43:03Z</time>
      </trkpt>
      <trkpt lat="59.9742719" lon="17.7251902">
        <ele>27.5349</ele>
        <time>2012-03-07T14:43:12Z</time>
      </trkpt>
      <trkpt lat="59.9742419" lon="17.724955">
        <ele>27.5349</ele>
        <time>2012-03-07T14:43:20Z</time>
      </trkpt>
      <trkpt lat="59.974193" lon="17.7246403">
        <ele>26.5736</ele>
        <time>2012-03-07T14:43:31Z</time>
      </trkpt>
      <trkpt lat="59.9741593" lon="17.7244087">
        <ele>26.5736</ele>
        <time>2012-03-07T14:43:39Z</time>
      </trkpt>
      <trkpt lat="59.9741272" lon="17.7241807">
        <ele>26.0929</ele>
        <time>2012-03-07T14:43:47Z</time>
      </trkpt>
      <trkpt lat="59.9740752" lon="17.7238274">
        <ele>27.5349</ele>
        <time>2012-03-07T14:43:59Z</time>
      </trkpt>
      <trkpt lat="59.9740159" lon="17.7234866">
        <ele>28.0155</ele>
        <time>2012-03-07T14:44:11Z</time>
      </trkpt>
      <trkpt lat="59.9739611" lon="17.7231829">
        <ele>28.4962</ele>
        <time>2012-03-07T14:44:22Z</time>
      </trkpt>
      <trkpt lat="59.9739083" lon="17.7229318">
        <ele>28.9769</ele>
        <time>2012-03-07T14:44:31Z</time>
      </trkpt>
      <trkpt lat="59.9738363" lon="17.722678">
        <ele>28.9769</ele>
        <time>2012-03-07T14:44:40Z</time>
      </trkpt>
      <trkpt lat="59.9737755" lon="17.7224791">
        <ele>29.4575</ele>
        <time>2012-03-07T14:44:47Z</time>
      </trkpt>
      <trkpt lat="59.973725" lon="17.7223176">
        <ele>29.9381</ele>
        <time>2012-03-07T14:44:53Z</time>
      </trkpt>
      <trkpt lat="59.9736455" lon="17.7220785">
        <ele>29.9381</ele>
        <time>2012-03-07T14:45:02Z</time>
      </trkpt>
      <trkpt lat="59.9735928" lon="17.7219057">
        <ele>30.8995</ele>
        <time>2012-03-07T14:45:09Z</time>
      </trkpt>
      <trkpt lat="59.9735395" lon="17.7217907">
        <ele>30.8995</ele>
        <time>2012-03-07T14:45:14Z</time>
      </trkpt>
      <trkpt lat="59.9734737" lon="17.7216243">
        <ele>31.8607</ele>
        <time>2012-03-07T14:45:21Z</time>
      </trkpt>
      <trkpt lat="59.9734106" lon="17.7214472">
        <ele>33.3029</ele>
        <time>2012-03-07T14:45:28Z</time>
      </trkpt>
      <trkpt lat="59.9733272" lon="17.7212757">
        <ele>31.8607</ele>
        <time>2012-03-07T14:45:36Z</time>
      </trkpt>
      <trkpt lat="59.9732725" lon="17.7211721">
        <ele>31.8607</ele>
        <time>2012-03-07T14:45:41Z</time>
      </trkpt>
      <trkpt lat="59.9731665" lon="17.7210054">
        <ele>29.9381</ele>
        <time>2012-03-07T14:45:50Z</time>
      </trkpt>
      <trkpt lat="59.9730903" lon="17.7209018">
        <ele>28.4962</ele>
        <time>2012-03-07T14:45:56Z</time>
      </trkpt>
      <trkpt lat="59.9729754" lon="17.7207296">
        <ele>27.0543</ele>
        <time>2012-03-07T14:46:05Z</time>
      </trkpt>
      <trkpt lat="59.9729024" lon="17.7206433">
        <ele>26.5736</ele>
        <time>2012-03-07T14:46:11Z</time>
      </trkpt>
      <trkpt lat="59.9728101" lon="17.7205268">
        <ele>27.0543</ele>
        <time>2012-03-07T14:46:18Z</time>
      </trkpt>
      <trkpt lat="59.9727252" lon="17.7204562">
        <ele>25.1317</ele>
        <time>2012-03-07T14:46:24Z</time>
      </trkpt>
      <trkpt lat="59.9726241" lon="17.7203469">
        <ele>24.651</ele>
        <time>2012-03-07T14:46:32Z</time>
      </trkpt>
      <trkpt lat="59.9725334" lon="17.7202423">
        <ele>24.651</ele>
        <time>2012-03-07T14:46:39Z</time>
      </trkpt>
      <trkpt lat="59.9724474" lon="17.720161">
        <ele>24.1703</ele>
        <time>2012-03-07T14:46:45Z</time>
      </trkpt>
      <trkpt lat="59.972417" lon="17.7201455">
        <ele>23.6896</ele>
        <time>2012-03-07T14:46:47Z</time>
      </trkpt>
      <trkpt lat="59.9723355" lon="17.7200791">
        <ele>23.6896</ele>
        <time>2012-03-07T14:46:53Z</time>
      </trkpt>
      <trkpt lat="59.9722242" lon="17.7199603">
        <ele>23.6896</ele>
        <time>2012-03-07T14:47:01Z</time>
      </trkpt>
      <trkpt lat="59.9721018" lon="17.7198398">
        <ele>24.651</ele>
        <time>2012-03-07T14:47:10Z</time>
      </trkpt>
      <trkpt lat="59.9719621" lon="17.719713">
        <ele>26.0929</ele>
        <time>2012-03-07T14:47:20Z</time>
      </trkpt>
      <trkpt lat="59.9719305" lon="17.7196959">
        <ele>26.5736</ele>
        <time>2012-03-07T14:47:22Z</time>
      </trkpt>
      <trkpt lat="59.9718932" lon="17.7196632">
        <ele>27.5349</ele>
        <time>2012-03-07T14:47:25Z</time>
      </trkpt>
      <trkpt lat="59.9717907" lon="17.7195947">
        <ele>26.5736</ele>
        <time>2012-03-07T14:47:32Z</time>
      </trkpt>
      <trkpt lat="59.9717016" lon="17.7195086">
        <ele>25.1317</ele>
        <time>2012-03-07T14:47:39Z</time>
      </trkpt>
      <trkpt lat="59.9716016" lon="17.7194138">
        <ele>24.651</ele>
        <time>2012-03-07T14:47:47Z</time>
      </trkpt>
      <trkpt lat="59.9715064" lon="17.7192937">
        <ele>24.651</ele>
        <time>2012-03-07T14:47:55Z</time>
      </trkpt>
      <trkpt lat="59.9714331" lon="17.7192302">
        <ele>24.651</ele>
        <time>2012-03-07T14:48:00Z</time>
      </trkpt>
      <trkpt lat="59.9713544" lon="17.7191382">
        <ele>23.6896</ele>
        <time>2012-03-07T14:48:06Z</time>
      </trkpt>
      <trkpt lat="59.9713395" lon="17.7191271">
        <ele>23.6896</ele>
        <time>2012-03-07T14:48:07Z</time>
      </trkpt>
      <trkpt lat="59.9712391" lon="17.7190427">
        <ele>23.6896</ele>
        <time>2012-03-07T14:48:14Z</time>
      </trkpt>
      <trkpt lat="59.9711478" lon="17.7189725">
        <ele>22.2476</ele>
        <time>2012-03-07T14:48:20Z</time>
      </trkpt>
      <trkpt lat="59.9711369" lon="17.7189565">
        <ele>21.2864</ele>
        <time>2012-03-07T14:48:21Z</time>
      </trkpt>
      <trkpt lat="59.9710124" lon="17.7188639">
        <ele>21.767</ele>
        <time>2012-03-07T14:48:30Z</time>
      </trkpt>
      <trkpt lat="59.9708521" lon="17.7187262">
        <ele>23.209</ele>
        <time>2012-03-07T14:48:41Z</time>
      </trkpt>
      <trkpt lat="59.9707608" lon="17.7186775">
        <ele>22.2476</ele>
        <time>2012-03-07T14:48:46Z</time>
      </trkpt>
      <trkpt lat="59.9706743" lon="17.7186228">
        <ele>20.325</ele>
        <time>2012-03-07T14:48:51Z</time>
      </trkpt>
      <trkpt lat="59.9705957" lon="17.7185591">
        <ele>19.3638</ele>
        <time>2012-03-07T14:48:56Z</time>
      </trkpt>
      <trkpt lat="59.9705201" lon="17.7185054">
        <ele>18.4023</ele>
        <time>2012-03-07T14:49:01Z</time>
      </trkpt>
      <trkpt lat="59.9704516" lon="17.7184462">
        <ele>17.4412</ele>
        <time>2012-03-07T14:49:06Z</time>
      </trkpt>
      <trkpt lat="59.970348" lon="17.7183716">
        <ele>17.9218</ele>
        <time>2012-03-07T14:49:13Z</time>
      </trkpt>
      <trkpt lat="59.9703122" lon="17.7183343">
        <ele>16.9604</ele>
        <time>2012-03-07T14:49:16Z</time>
      </trkpt>
      <trkpt lat="59.9702992" lon="17.7182039">
        <ele>16.9604</ele>
        <time>2012-03-07T14:49:21Z</time>
      </trkpt>
      <trkpt lat="59.9702851" lon="17.7181924">
        <ele>16.4797</ele>
        <time>2012-03-07T14:49:22Z</time>
      </trkpt>
      <trkpt lat="59.9701781" lon="17.7181205">
        <ele>16.9604</ele>
        <time>2012-03-07T14:49:29Z</time>
      </trkpt>
      <trkpt lat="59.9701024" lon="17.7180692">
        <ele>15.0377</ele>
        <time>2012-03-07T14:49:34Z</time>
      </trkpt>
      <trkpt lat="59.9700092" lon="17.717991">
        <ele>16.9604</ele>
        <time>2012-03-07T14:49:41Z</time>
      </trkpt>
      <trkpt lat="59.9699459" lon="17.7179095">
        <ele>18.8831</ele>
        <time>2012-03-07T14:49:46Z</time>
      </trkpt>
      <trkpt lat="59.96993" lon="17.7178966">
        <ele>19.3638</ele>
        <time>2012-03-07T14:49:47Z</time>
      </trkpt>
      <trkpt lat="59.9698282" lon="17.7178127">
        <ele>20.325</ele>
        <time>2012-03-07T14:49:55Z</time>
      </trkpt>
      <trkpt lat="59.9697699" lon="17.7177642">
        <ele>21.2864</ele>
        <time>2012-03-07T14:49:59Z</time>
      </trkpt>
      <trkpt lat="59.9697205" lon="17.7177379">
        <ele>22.2476</ele>
        <time>2012-03-07T14:50:03Z</time>
      </trkpt>
      <trkpt lat="59.9695904" lon="17.7176461">
        <ele>23.209</ele>
        <time>2012-03-07T14:50:12Z</time>
      </trkpt>
      <trkpt lat="59.9694848" lon="17.717573">
        <ele>24.651</ele>
        <time>2012-03-07T14:50:20Z</time>
      </trkpt>
      <trkpt lat="59.9693814" lon="17.7175105">
        <ele>25.1317</ele>
        <time>2012-03-07T14:50:27Z</time>
      </trkpt>
      <trkpt lat="59.9692877" lon="17.7174703">
        <ele>25.6123</ele>
        <time>2012-03-07T14:50:33Z</time>
      </trkpt>
      <trkpt lat="59.9691628" lon="17.7174157">
        <ele>26.0929</ele>
        <time>2012-03-07T14:50:41Z</time>
      </trkpt>
      <trkpt lat="59.9690544" lon="17.7173731">
        <ele>27.0543</ele>
        <time>2012-03-07T14:50:48Z</time>
      </trkpt>
      <trkpt lat="59.968952" lon="17.7173393">
        <ele>27.5349</ele>
        <time>2012-03-07T14:50:55Z</time>
      </trkpt>
      <trkpt lat="59.9688772" lon="17.7173658">
        <ele>27.5349</ele>
        <time>2012-03-07T14:51:02Z</time>
      </trkpt>
      <trkpt lat="59.9687779" lon="17.717359">
        <ele>27.0543</ele>
        <time>2012-03-07T14:51:09Z</time>
      </trkpt>
      <trkpt lat="59.9686655" lon="17.7173374">
        <ele>26.0929</ele>
        <time>2012-03-07T14:51:16Z</time>
      </trkpt>
      <trkpt lat="59.9685784" lon="17.717349">
        <ele>24.1703</ele>
        <time>2012-03-07T14:51:20Z</time>
      </trkpt>
      <trkpt lat="59.9684724" lon="17.7173513">
        <ele>23.6896</ele>
        <time>2012-03-07T14:51:27Z</time>
      </trkpt>
      <trkpt lat="59.9683432" lon="17.7172647">
        <ele>24.1703</ele>
        <time>2012-03-07T14:51:36Z</time>
      </trkpt>
      <trkpt lat="59.9682506" lon="17.7171918">
        <ele>22.2476</ele>
        <time>2012-03-07T14:51:43Z</time>
      </trkpt>
      <trkpt lat="59.968197" lon="17.717154">
        <ele>21.2864</ele>
        <time>2012-03-07T14:51:47Z</time>
      </trkpt>
      <trkpt lat="59.968112" lon="17.7170788">
        <ele>21.2864</ele>
        <time>2012-03-07T14:51:53Z</time>
      </trkpt>
      <trkpt lat="59.9680884" lon="17.7170489">
        <ele>21.767</ele>
        <time>2012-03-07T14:51:55Z</time>
      </trkpt>
      <trkpt lat="59.9680354" lon="17.7169479">
        <ele>22.7283</ele>
        <time>2012-03-07T14:52:00Z</time>
      </trkpt>
      <trkpt lat="59.9679558" lon="17.7168368">
        <ele>23.209</ele>
        <time>2012-03-07T14:52:06Z</time>
      </trkpt>
      <trkpt lat="59.9679383" lon="17.716796">
        <ele>22.2476</ele>
        <time>2012-03-07T14:52:08Z</time>
      </trkpt>
      <trkpt lat="59.9679004" lon="17.7167193">
        <ele>21.767</ele>
        <time>2012-03-07T14:52:12Z</time>
      </trkpt>
      <trkpt lat="59.9678543" lon="17.7166484">
        <ele>20.325</ele>
        <time>2012-03-07T14:52:16Z</time>
      </trkpt>
      <trkpt lat="59.9677895" lon="17.7165123">
        <ele>19.8444</ele>
        <time>2012-03-07T14:52:22Z</time>
      </trkpt>
      <trkpt lat="59.9677073" lon="17.7163553">
        <ele>18.4023</ele>
        <time>2012-03-07T14:52:29Z</time>
      </trkpt>
      <trkpt lat="59.9676642" lon="17.7162442">
        <ele>18.4023</ele>
        <time>2012-03-07T14:52:34Z</time>
      </trkpt>
      <trkpt lat="59.9675854" lon="17.7161212">
        <ele>16.4797</ele>
        <time>2012-03-07T14:52:39Z</time>
      </trkpt>
      <trkpt lat="59.9675192" lon="17.7159827">
        <ele>14.0764</ele>
        <time>2012-03-07T14:52:45Z</time>
      </trkpt>
      <trkpt lat="59.9674659" lon="17.715803">
        <ele>12.1538</ele>
        <time>2012-03-07T14:52:52Z</time>
      </trkpt>
      <trkpt lat="59.967434" lon="17.7156293">
        <ele>10.7118</ele>
        <time>2012-03-07T14:52:58Z</time>
      </trkpt>
      <trkpt lat="59.9674032" lon="17.7154331">
        <ele>9.75061</ele>
        <time>2012-03-07T14:53:05Z</time>
      </trkpt>
      <trkpt lat="59.9673868" lon="17.7152648">
        <ele>7.82788</ele>
        <time>2012-03-07T14:53:11Z</time>
      </trkpt>
      <trkpt lat="59.9674279" lon="17.7150856">
        <ele>10.7118</ele>
        <time>2012-03-07T14:53:17Z</time>
      </trkpt>
      <trkpt lat="59.9674072" lon="17.7149271">
        <ele>8.30859</ele>
        <time>2012-03-07T14:53:23Z</time>
      </trkpt>
      <trkpt lat="59.967402" lon="17.7149037">
        <ele>7.82788</ele>
        <time>2012-03-07T14:53:24Z</time>
      </trkpt>
      <trkpt lat="59.9673749" lon="17.7146658">
        <ele>6.86646</ele>
        <time>2012-03-07T14:53:33Z</time>
      </trkpt>
      <trkpt lat="59.9673539" lon="17.7144759">
        <ele>4.46326</ele>
        <time>2012-03-07T14:53:40Z</time>
      </trkpt>
      <trkpt lat="59.9673175" lon="17.7142028">
        <ele>2.06006</ele>
        <time>2012-03-07T14:53:50Z</time>
      </trkpt>
      <trkpt lat="59.9672737" lon="17.7139226">
        <ele>4.46326</ele>
        <time>2012-03-07T14:53:59Z</time>
      </trkpt>
      <trkpt lat="59.9672097" lon="17.7136295">
        <ele>5.42456</ele>
        <time>2012-03-07T14:54:09Z</time>
      </trkpt>
      <trkpt lat="59.9671622" lon="17.7134073">
        <ele>6.38586</ele>
        <time>2012-03-07T14:54:17Z</time>
      </trkpt>
      <trkpt lat="59.9670813" lon="17.7130492">
        <ele>12.6344</ele>
        <time>2012-03-07T14:54:27Z</time>
      </trkpt>
      <trkpt lat="59.9670033" lon="17.7126916">
        <ele>17.4412</ele>
        <time>2012-03-07T14:54:38Z</time>
      </trkpt>
      <trkpt lat="59.9669551" lon="17.7124823">
        <ele>17.4412</ele>
        <time>2012-03-07T14:54:45Z</time>
      </trkpt>
      <trkpt lat="59.9669101" lon="17.7122948">
        <ele>16.9604</ele>
        <time>2012-03-07T14:54:51Z</time>
      </trkpt>
      <trkpt lat="59.9668172" lon="17.712089">
        <ele>18.4023</ele>
        <time>2012-03-07T14:54:58Z</time>
      </trkpt>
      <trkpt lat="59.9667539" lon="17.7119718">
        <ele>16.4797</ele>
        <time>2012-03-07T14:55:03Z</time>
      </trkpt>
      <trkpt lat="59.9666943" lon="17.7118136">
        <ele>12.6344</ele>
        <time>2012-03-07T14:55:10Z</time>
      </trkpt>
      <trkpt lat="59.9666416" lon="17.7116303">
        <ele>11.6732</ele>
        <time>2012-03-07T14:55:17Z</time>
      </trkpt>
      <trkpt lat="59.9666069" lon="17.7114972">
        <ele>11.6732</ele>
        <time>2012-03-07T14:55:22Z</time>
      </trkpt>
      <trkpt lat="59.9665669" lon="17.7114069">
        <ele>11.1925</ele>
        <time>2012-03-07T14:55:26Z</time>
      </trkpt>
      <trkpt lat="59.9665095" lon="17.7112651">
        <ele>8.78918</ele>
        <time>2012-03-07T14:55:32Z</time>
      </trkpt>
      <trkpt lat="59.9664891" lon="17.7111547">
        <ele>9.75061</ele>
        <time>2012-03-07T14:55:36Z</time>
      </trkpt>
      <trkpt lat="59.9664386" lon="17.7109612">
        <ele>8.78918</ele>
        <time>2012-03-07T14:55:44Z</time>
      </trkpt>
      <trkpt lat="59.9663956" lon="17.7108201">
        <ele>8.30859</ele>
        <time>2012-03-07T14:55:50Z</time>
      </trkpt>
      <trkpt lat="59.9663541" lon="17.7106756">
        <ele>9.2699</ele>
        <time>2012-03-07T14:55:56Z</time>
      </trkpt>
      <trkpt lat="59.966343" lon="17.7106115">
        <ele>9.75061</ele>
        <time>2012-03-07T14:55:58Z</time>
      </trkpt>
      <trkpt lat="59.9663044" lon="17.7104279">
        <ele>9.75061</ele>
        <time>2012-03-07T14:56:05Z</time>
      </trkpt>
      <trkpt lat="59.9662453" lon="17.7102821">
        <ele>8.78918</ele>
        <time>2012-03-07T14:56:11Z</time>
      </trkpt>
      <trkpt lat="59.9661797" lon="17.7101173">
        <ele>8.78918</ele>
        <time>2012-03-07T14:56:17Z</time>
      </trkpt>
      <trkpt lat="59.9661234" lon="17.7099506">
        <ele>9.2699</ele>
        <time>2012-03-07T14:56:23Z</time>
      </trkpt>
      <trkpt lat="59.9660784" lon="17.7098187">
        <ele>7.82788</ele>
        <time>2012-03-07T14:56:29Z</time>
      </trkpt>
      <trkpt lat="59.9660452" lon="17.7096514">
        <ele>5.90527</ele>
        <time>2012-03-07T14:56:36Z</time>
      </trkpt>
      <trkpt lat="59.96596" lon="17.7093492">
        <ele>7.82788</ele>
        <time>2012-03-07T14:56:46Z</time>
      </trkpt>
      <trkpt lat="59.9659154" lon="17.7091997">
        <ele>10.7118</ele>
        <time>2012-03-07T14:56:51Z</time>
      </trkpt>
      <trkpt lat="59.965861" lon="17.7090317">
        <ele>12.6344</ele>
        <time>2012-03-07T14:56:57Z</time>
      </trkpt>
      <trkpt lat="59.9658336" lon="17.7089497">
        <ele>13.5958</ele>
        <time>2012-03-07T14:57:00Z</time>
      </trkpt>
      <trkpt lat="59.9657895" lon="17.7087658">
        <ele>13.5958</ele>
        <time>2012-03-07T14:57:07Z</time>
      </trkpt>
      <trkpt lat="59.9657196" lon="17.7085584">
        <ele>14.0764</ele>
        <time>2012-03-07T14:57:16Z</time>
      </trkpt>
      <trkpt lat="59.9656631" lon="17.7084484">
        <ele>13.5958</ele>
        <time>2012-03-07T14:57:22Z</time>
      </trkpt>
      <trkpt lat="59.9655828" lon="17.7083204">
        <ele>14.557</ele>
        <time>2012-03-07T14:57:29Z</time>
      </trkpt>
      <trkpt lat="59.9655" lon="17.7081972">
        <ele>15.999</ele>
        <time>2012-03-07T14:57:36Z</time>
      </trkpt>
      <trkpt lat="59.9653932" lon="17.708073">
        <ele>18.8831</ele>
        <time>2012-03-07T14:57:44Z</time>
      </trkpt>
      <trkpt lat="59.9652694" lon="17.7079777">
        <ele>19.8444</ele>
        <time>2012-03-07T14:57:52Z</time>
      </trkpt>
      <trkpt lat="59.9651714" lon="17.7079235">
        <ele>22.2476</ele>
        <time>2012-03-07T14:57:58Z</time>
      </trkpt>
      <trkpt lat="59.9650804" lon="17.7078686">
        <ele>22.7283</ele>
        <time>2012-03-07T14:58:04Z</time>
      </trkpt>
      <trkpt lat="59.9649755" lon="17.7078083">
        <ele>22.7283</ele>
        <time>2012-03-07T14:58:11Z</time>
      </trkpt>
      <trkpt lat="59.9648752" lon="17.7077082">
        <ele>23.6896</ele>
        <time>2012-03-07T14:58:18Z</time>
      </trkpt>
      <trkpt lat="59.9647996" lon="17.7076433">
        <ele>23.6896</ele>
        <time>2012-03-07T14:58:24Z</time>
      </trkpt>
      <trkpt lat="59.9647862" lon="17.7076374">
        <ele>23.209</ele>
        <time>2012-03-07T14:58:25Z</time>
      </trkpt>
      <trkpt lat="59.9647256" lon="17.7075729">
        <ele>23.6896</ele>
        <time>2012-03-07T14:58:30Z</time>
      </trkpt>
      <trkpt lat="59.9646676" lon="17.7075459">
        <ele>23.209</ele>
        <time>2012-03-07T14:58:34Z</time>
      </trkpt>
      <trkpt lat="59.9645394" lon="17.7074542">
        <ele>23.6896</ele>
        <time>2012-03-07T14:58:43Z</time>
      </trkpt>
      <trkpt lat="59.9644431" lon="17.7073836">
        <ele>24.1703</ele>
        <time>2012-03-07T14:58:50Z</time>
      </trkpt>
      <trkpt lat="59.9643267" lon="17.7073718">
        <ele>23.209</ele>
        <time>2012-03-07T14:58:56Z</time>
      </trkpt>
      <trkpt lat="59.9642413" lon="17.7073543">
        <ele>23.209</ele>
        <time>2012-03-07T14:59:01Z</time>
      </trkpt>
      <trkpt lat="59.9641189" lon="17.7073281">
        <ele>23.6896</ele>
        <time>2012-03-07T14:59:09Z</time>
      </trkpt>
      <trkpt lat="59.9639811" lon="17.7073076">
        <ele>25.6123</ele>
        <time>2012-03-07T14:59:17Z</time>
      </trkpt>
      <trkpt lat="59.9638444" lon="17.7072688">
        <ele>26.5736</ele>
        <time>2012-03-07T14:59:26Z</time>
      </trkpt>
      <trkpt lat="59.9637253" lon="17.7072482">
        <ele>28.0155</ele>
        <time>2012-03-07T14:59:34Z</time>
      </trkpt>
      <trkpt lat="59.9635833" lon="17.7072231">
        <ele>29.4575</ele>
        <time>2012-03-07T14:59:44Z</time>
      </trkpt>
      <trkpt lat="59.9634885" lon="17.7072122">
        <ele>29.4575</ele>
        <time>2012-03-07T14:59:50Z</time>
      </trkpt>
      <trkpt lat="59.9634173" lon="17.7072052">
        <ele>29.4575</ele>
        <time>2012-03-07T14:59:55Z</time>
      </trkpt>
      <trkpt lat="59.9633295" lon="17.7072449">
        <ele>31.3801</ele>
        <time>2012-03-07T15:00:00Z</time>
      </trkpt>
      <trkpt lat="59.9632512" lon="17.7072616">
        <ele>31.8607</ele>
        <time>2012-03-07T15:00:05Z</time>
      </trkpt>
      <trkpt lat="59.9631694" lon="17.7072243">
        <ele>32.8223</ele>
        <time>2012-03-07T15:00:11Z</time>
      </trkpt>
      <trkpt lat="59.963074" lon="17.7072214">
        <ele>32.3416</ele>
        <time>2012-03-07T15:00:18Z</time>
      </trkpt>
      <trkpt lat="59.9629672" lon="17.7072209">
        <ele>31.8607</ele>
        <time>2012-03-07T15:00:25Z</time>
      </trkpt>
      <trkpt lat="59.9628504" lon="17.7072401">
        <ele>32.3416</ele>
        <time>2012-03-07T15:00:31Z</time>
      </trkpt>
      <trkpt lat="59.9627698" lon="17.7072258">
        <ele>32.3416</ele>
        <time>2012-03-07T15:00:37Z</time>
      </trkpt>
      <trkpt lat="59.9626624" lon="17.7071978">
        <ele>31.8607</ele>
        <time>2012-03-07T15:00:45Z</time>
      </trkpt>
      <trkpt lat="59.9625462" lon="17.7071787">
        <ele>30.4188</ele>
        <time>2012-03-07T15:00:52Z</time>
      </trkpt>
      <trkpt lat="59.9624512" lon="17.7071544">
        <ele>29.4575</ele>
        <time>2012-03-07T15:00:58Z</time>
      </trkpt>
      <trkpt lat="59.9623427" lon="17.7071123">
        <ele>30.4188</ele>
        <time>2012-03-07T15:01:05Z</time>
      </trkpt>
      <trkpt lat="59.9622436" lon="17.7070775">
        <ele>30.8995</ele>
        <time>2012-03-07T15:01:11Z</time>
      </trkpt>
      <trkpt lat="59.9622286" lon="17.7070745">
        <ele>30.8995</ele>
        <time>2012-03-07T15:01:12Z</time>
      </trkpt>
      <trkpt lat="59.9621282" lon="17.7070151">
        <ele>30.4188</ele>
        <time>2012-03-07T15:01:19Z</time>
      </trkpt>
      <trkpt lat="59.9619966" lon="17.7069428">
        <ele>30.8995</ele>
        <time>2012-03-07T15:01:27Z</time>
      </trkpt>
      <trkpt lat="59.9618847" lon="17.7068782">
        <ele>29.4575</ele>
        <time>2012-03-07T15:01:34Z</time>
      </trkpt>
      <trkpt lat="59.9617967" lon="17.7067521">
        <ele>28.9769</ele>
        <time>2012-03-07T15:01:42Z</time>
      </trkpt>
      <trkpt lat="59.9617063" lon="17.7067036">
        <ele>28.4962</ele>
        <time>2012-03-07T15:01:48Z</time>
      </trkpt>
      <trkpt lat="59.9616787" lon="17.7066807">
        <ele>28.4962</ele>
        <time>2012-03-07T15:01:50Z</time>
      </trkpt>
      <trkpt lat="59.9616504" lon="17.7066511">
        <ele>27.5349</ele>
        <time>2012-03-07T15:01:53Z</time>
      </trkpt>
      <trkpt lat="59.9616017" lon="17.7065822">
        <ele>27.0543</ele>
        <time>2012-03-07T15:01:57Z</time>
      </trkpt>
      <trkpt lat="59.9616018" lon="17.7064809">
        <ele>26.0929</ele>
        <time>2012-03-07T15:02:01Z</time>
      </trkpt>
      <trkpt lat="59.961524" lon="17.7063939">
        <ele>24.651</ele>
        <time>2012-03-07T15:02:07Z</time>
      </trkpt>
      <trkpt lat="59.9614542" lon="17.7062924">
        <ele>23.209</ele>
        <time>2012-03-07T15:02:12Z</time>
      </trkpt>
      <trkpt lat="59.9613679" lon="17.7061473">
        <ele>21.767</ele>
        <time>2012-03-07T15:02:19Z</time>
      </trkpt>
      <trkpt lat="59.9613243" lon="17.7060623">
        <ele>21.767</ele>
        <time>2012-03-07T15:02:23Z</time>
      </trkpt>
      <trkpt lat="59.9612536" lon="17.7059493">
        <ele>22.2476</ele>
        <time>2012-03-07T15:02:28Z</time>
      </trkpt>
      <trkpt lat="59.9611849" lon="17.7058085">
        <ele>20.325</ele>
        <time>2012-03-07T15:02:35Z</time>
      </trkpt>
      <trkpt lat="59.9611517" lon="17.7057697">
        <ele>20.325</ele>
        <time>2012-03-07T15:02:37Z</time>
      </trkpt>
      <trkpt lat="59.9610827" lon="17.7056659">
        <ele>19.3638</ele>
        <time>2012-03-07T15:02:44Z</time>
      </trkpt>
      <trkpt lat="59.9610464" lon="17.7056112">
        <ele>19.8444</ele>
        <time>2012-03-07T15:02:48Z</time>
      </trkpt>
      <trkpt lat="59.9609985" lon="17.7054982">
        <ele>19.8444</ele>
        <time>2012-03-07T15:02:54Z</time>
      </trkpt>
      <trkpt lat="59.9609223" lon="17.7053852">
        <ele>18.8831</ele>
        <time>2012-03-07T15:02:59Z</time>
      </trkpt>
      <trkpt lat="59.9608307" lon="17.7052572">
        <ele>19.3638</ele>
        <time>2012-03-07T15:03:05Z</time>
      </trkpt>
      <trkpt lat="59.960745" lon="17.7051471">
        <ele>18.4023</ele>
        <time>2012-03-07T15:03:11Z</time>
      </trkpt>
      <trkpt lat="59.9606854" lon="17.705045">
        <ele>17.4412</ele>
        <time>2012-03-07T15:03:16Z</time>
      </trkpt>
      <trkpt lat="59.9605852" lon="17.7049498">
        <ele>17.4412</ele>
        <time>2012-03-07T15:03:23Z</time>
      </trkpt>
      <trkpt lat="59.9605712" lon="17.7049365">
        <ele>17.4412</ele>
        <time>2012-03-07T15:03:24Z</time>
      </trkpt>
      <trkpt lat="59.9605255" lon="17.7048274">
        <ele>18.4023</ele>
        <time>2012-03-07T15:03:29Z</time>
      </trkpt>
      <trkpt lat="59.9604246" lon="17.7047565">
        <ele>19.8444</ele>
        <time>2012-03-07T15:03:34Z</time>
      </trkpt>
      <trkpt lat="59.9603644" lon="17.7046482">
        <ele>21.2864</ele>
        <time>2012-03-07T15:03:38Z</time>
      </trkpt>
      <trkpt lat="59.9602773" lon="17.7045675">
        <ele>20.325</ele>
        <time>2012-03-07T15:03:44Z</time>
      </trkpt>
      <trkpt lat="59.9602142" lon="17.7045113">
        <ele>21.2864</ele>
        <time>2012-03-07T15:03:49Z</time>
      </trkpt>
      <trkpt lat="59.96011" lon="17.7044371">
        <ele>23.209</ele>
        <time>2012-03-07T15:03:56Z</time>
      </trkpt>
      <trkpt lat="59.9600464" lon="17.7044415">
        <ele>26.5736</ele>
        <time>2012-03-07T15:04:00Z</time>
      </trkpt>
      <trkpt lat="59.960006" lon="17.704399">
        <ele>27.5349</ele>
        <time>2012-03-07T15:04:04Z</time>
      </trkpt>
      <trkpt lat="59.9599953" lon="17.7043133">
        <ele>28.4962</ele>
        <time>2012-03-07T15:04:08Z</time>
      </trkpt>
      <trkpt lat="59.9599981" lon="17.7041379">
        <ele>28.9769</ele>
        <time>2012-03-07T15:04:14Z</time>
      </trkpt>
      <trkpt lat="59.959937" lon="17.7039585">
        <ele>25.1317</ele>
        <time>2012-03-07T15:04:21Z</time>
      </trkpt>
      <trkpt lat="59.959909" lon="17.7039053">
        <ele>24.651</ele>
        <time>2012-03-07T15:04:23Z</time>
      </trkpt>
      <trkpt lat="59.9598587" lon="17.7037691">
        <ele>19.3638</ele>
        <time>2012-03-07T15:04:28Z</time>
      </trkpt>
      <trkpt lat="59.9598055" lon="17.7035996">
        <ele>12.6344</ele>
        <time>2012-03-07T15:04:35Z</time>
      </trkpt>
      <trkpt lat="59.9597469" lon="17.7033692">
        <ele>14.557</ele>
        <time>2012-03-07T15:04:42Z</time>
      </trkpt>
      <trkpt lat="59.9596946" lon="17.7031848">
        <ele>12.6344</ele>
        <time>2012-03-07T15:04:49Z</time>
      </trkpt>
      <trkpt lat="59.9596765" lon="17.7031157">
        <ele>14.0764</ele>
        <time>2012-03-07T15:04:51Z</time>
      </trkpt>
      <trkpt lat="59.9596029" lon="17.7029017">
        <ele>15.0377</ele>
        <time>2012-03-07T15:04:59Z</time>
      </trkpt>
      <trkpt lat="59.9595743" lon="17.7028139">
        <ele>14.0764</ele>
        <time>2012-03-07T15:05:03Z</time>
      </trkpt>
      <trkpt lat="59.9595303" lon="17.7026572">
        <ele>13.5958</ele>
        <time>2012-03-07T15:05:08Z</time>
      </trkpt>
      <trkpt lat="59.9594832" lon="17.7025098">
        <ele>14.557</ele>
        <time>2012-03-07T15:05:13Z</time>
      </trkpt>
      <trkpt lat="59.959432" lon="17.7023069">
        <ele>16.9604</ele>
        <time>2012-03-07T15:05:20Z</time>
      </trkpt>
      <trkpt lat="59.9593635" lon="17.702145">
        <ele>16.4797</ele>
        <time>2012-03-07T15:05:26Z</time>
      </trkpt>
      <trkpt lat="59.9593409" lon="17.7020913">
        <ele>14.557</ele>
        <time>2012-03-07T15:05:29Z</time>
      </trkpt>
      <trkpt lat="59.9593258" lon="17.7019707">
        <ele>10.2312</ele>
        <time>2012-03-07T15:05:35Z</time>
      </trkpt>
      <trkpt lat="59.959321" lon="17.7019369">
        <ele>9.2699</ele>
        <time>2012-03-07T15:05:37Z</time>
      </trkpt>
      <trkpt lat="59.9592872" lon="17.7017323">
        <ele>7.34717</ele>
        <time>2012-03-07T15:05:45Z</time>
      </trkpt>
      <trkpt lat="59.9592325" lon="17.7014172">
        <ele>12.6344</ele>
        <time>2012-03-07T15:05:53Z</time>
      </trkpt>
      <trkpt lat="59.9592216" lon="17.7012493">
        <ele>9.75061</ele>
        <time>2012-03-07T15:05:59Z</time>
      </trkpt>
      <trkpt lat="59.9591999" lon="17.7010496">
        <ele>6.86646</ele>
        <time>2012-03-07T15:06:07Z</time>
      </trkpt>
      <trkpt lat="59.9591869" lon="17.7009636">
        <ele>6.38586</ele>
        <time>2012-03-07T15:06:10Z</time>
      </trkpt>
      <trkpt lat="59.959172" lon="17.7006966">
        <ele>7.34717</ele>
        <time>2012-03-07T15:06:18Z</time>
      </trkpt>
      <trkpt lat="59.9591559" lon="17.7005073">
        <ele>6.86646</ele>
        <time>2012-03-07T15:06:24Z</time>
      </trkpt>
      <trkpt lat="59.9591404" lon="17.7002663">
        <ele>8.30859</ele>
        <time>2012-03-07T15:06:31Z</time>
      </trkpt>
      <trkpt lat="59.9591284" lon="17.7000581">
        <ele>6.38586</ele>
        <time>2012-03-07T15:06:38Z</time>
      </trkpt>
      <trkpt lat="59.959128" lon="17.7000285">
        <ele>5.90527</ele>
        <time>2012-03-07T15:06:39Z</time>
      </trkpt>
      <trkpt lat="59.9591673" lon="17.6998211">
        <ele>6.38586</ele>
        <time>2012-03-07T15:06:46Z</time>
      </trkpt>
      <trkpt lat="59.9591609" lon="17.6995885">
        <ele>4.94385</ele>
        <time>2012-03-07T15:06:53Z</time>
      </trkpt>
      <trkpt lat="59.9591523" lon="17.6993665">
        <ele>3.50195</ele>
        <time>2012-03-07T15:07:00Z</time>
      </trkpt>
      <trkpt lat="59.9591407" lon="17.6991493">
        <ele>0.137451</ele>
        <time>2012-03-07T15:07:07Z</time>
      </trkpt>
      <trkpt lat="59.9591144" lon="17.6988128">
        <ele>6.86646</ele>
        <time>2012-03-07T15:07:15Z</time>
      </trkpt>
      <trkpt lat="59.9591284" lon="17.6985832">
        <ele>4.94385</ele>
        <time>2012-03-07T15:07:24Z</time>
      </trkpt>
      <trkpt lat="59.9591375" lon="17.6984315">
        <ele>3.02124</ele>
        <time>2012-03-07T15:07:30Z</time>
      </trkpt>
      <trkpt lat="59.9591366" lon="17.6981982">
        <ele>3.50195</ele>
        <time>2012-03-07T15:07:38Z</time>
      </trkpt>
      <trkpt lat="59.9591258" lon="17.6979933">
        <ele>3.02124</ele>
        <time>2012-03-07T15:07:45Z</time>
      </trkpt>
      <trkpt lat="59.959088" lon="17.6978936">
        <ele>1.09863</ele>
        <time>2012-03-07T15:07:49Z</time>
      </trkpt>
      <trkpt lat="59.9590445" lon="17.6977144">
        <ele>0</ele>
        <time>2012-03-07T15:07:57Z</time>
      </trkpt>
      <trkpt lat="59.9589792" lon="17.6974445">
        <ele>2.54065</ele>
        <time>2012-03-07T15:08:05Z</time>
      </trkpt>
      <trkpt lat="59.9589159" lon="17.6971976">
        <ele>8.30859</ele>
        <time>2012-03-07T15:08:11Z</time>
      </trkpt>
      <trkpt lat="59.958872" lon="17.6970214">
        <ele>9.75061</ele>
        <time>2012-03-07T15:08:16Z</time>
      </trkpt>
      <trkpt lat="59.9588666" lon="17.6969929">
        <ele>10.2312</ele>
        <time>2012-03-07T15:08:17Z</time>
      </trkpt>
      <trkpt lat="59.9588471" lon="17.6969283">
        <ele>11.6732</ele>
        <time>2012-03-07T15:08:19Z</time>
      </trkpt>
      <trkpt lat="59.9588241" lon="17.6968514">
        <ele>11.1925</ele>
        <time>2012-03-07T15:08:23Z</time>
      </trkpt>
      <trkpt lat="59.9587957" lon="17.6967307">
        <ele>9.75061</ele>
        <time>2012-03-07T15:08:28Z</time>
      </trkpt>
      <trkpt lat="59.9587314" lon="17.6965561">
        <ele>10.7118</ele>
        <time>2012-03-07T15:08:34Z</time>
      </trkpt>
      <trkpt lat="59.9586291" lon="17.6963413">
        <ele>12.1538</ele>
        <time>2012-03-07T15:08:42Z</time>
      </trkpt>
      <trkpt lat="59.9585714" lon="17.6962253">
        <ele>11.1925</ele>
        <time>2012-03-07T15:08:47Z</time>
      </trkpt>
      <trkpt lat="59.9585276" lon="17.6961285">
        <ele>10.7118</ele>
        <time>2012-03-07T15:08:51Z</time>
      </trkpt>
      <trkpt lat="59.958469" lon="17.6959653">
        <ele>11.6732</ele>
        <time>2012-03-07T15:08:57Z</time>
      </trkpt>
      <trkpt lat="59.9584136" lon="17.6958915">
        <ele>12.1538</ele>
        <time>2012-03-07T15:09:01Z</time>
      </trkpt>
      <trkpt lat="59.9583707" lon="17.6957958">
        <ele>11.6732</ele>
        <time>2012-03-07T15:09:05Z</time>
      </trkpt>
      <trkpt lat="59.9582789" lon="17.695575">
        <ele>10.2312</ele>
        <time>2012-03-07T15:09:14Z</time>
      </trkpt>
      <trkpt lat="59.9581971" lon="17.6953875">
        <ele>11.1925</ele>
        <time>2012-03-07T15:09:21Z</time>
      </trkpt>
      <trkpt lat="59.9581691" lon="17.6952808">
        <ele>11.1925</ele>
        <time>2012-03-07T15:09:25Z</time>
      </trkpt>
      <trkpt lat="59.9581156" lon="17.6951327">
        <ele>11.6732</ele>
        <time>2012-03-07T15:09:31Z</time>
      </trkpt>
      <trkpt lat="59.9580789" lon="17.695023">
        <ele>12.1538</ele>
        <time>2012-03-07T15:09:35Z</time>
      </trkpt>
      <trkpt lat="59.95803" lon="17.6948011">
        <ele>13.1151</ele>
        <time>2012-03-07T15:09:43Z</time>
      </trkpt>
      <trkpt lat="59.9579878" lon="17.6946957">
        <ele>12.6344</ele>
        <time>2012-03-07T15:09:48Z</time>
      </trkpt>
      <trkpt lat="59.9579204" lon="17.6944997">
        <ele>15.0377</ele>
        <time>2012-03-07T15:09:55Z</time>
      </trkpt>
      <trkpt lat="59.95791" lon="17.6944776">
        <ele>15.0377</ele>
        <time>2012-03-07T15:09:56Z</time>
      </trkpt>
      <trkpt lat="59.9578598" lon="17.6944024">
        <ele>13.5958</ele>
        <time>2012-03-07T15:10:01Z</time>
      </trkpt>
      <trkpt lat="59.9577676" lon="17.6940938">
        <ele>16.4797</ele>
        <time>2012-03-07T15:10:13Z</time>
      </trkpt>
      <trkpt lat="59.9577268" lon="17.6939865">
        <ele>16.9604</ele>
        <time>2012-03-07T15:10:18Z</time>
      </trkpt>
      <trkpt lat="59.9576517" lon="17.6938662">
        <ele>13.1151</ele>
        <time>2012-03-07T15:10:26Z</time>
      </trkpt>
      <trkpt lat="59.9576044" lon="17.6938029">
        <ele>9.75061</ele>
        <time>2012-03-07T15:10:31Z</time>
      </trkpt>
      <trkpt lat="59.9575594" lon="17.6936912">
        <ele>5.42456</ele>
        <time>2012-03-07T15:10:38Z</time>
      </trkpt>
      <trkpt lat="59.9575076" lon="17.6935582">
        <ele>0.137451</ele>
        <time>2012-03-07T15:10:45Z</time>
      </trkpt>
      <trkpt lat="59.957492" lon="17.6935182">
        <ele>0</ele>
        <time>2012-03-07T15:10:47Z</time>
      </trkpt>
      <trkpt lat="59.9574532" lon="17.6933619">
        <ele>0</ele>
        <time>2012-03-07T15:10:52Z</time>
      </trkpt>
      <trkpt lat="59.9574081" lon="17.6932434">
        <ele>0.618042</ele>
        <time>2012-03-07T15:10:56Z</time>
      </trkpt>
      <trkpt lat="59.9573558" lon="17.6931163">
        <ele>3.98267</ele>
        <time>2012-03-07T15:11:00Z</time>
      </trkpt>
      <trkpt lat="59.9573065" lon="17.6928914">
        <ele>8.78918</ele>
        <time>2012-03-07T15:11:06Z</time>
      </trkpt>
      <trkpt lat="59.9572527" lon="17.6927943">
        <ele>4.46326</ele>
        <time>2012-03-07T15:11:12Z</time>
      </trkpt>
      <trkpt lat="59.9571794" lon="17.6926753">
        <ele>6.86646</ele>
        <time>2012-03-07T15:11:17Z</time>
      </trkpt>
      <trkpt lat="59.9571319" lon="17.6925714">
        <ele>9.75061</ele>
        <time>2012-03-07T15:11:21Z</time>
      </trkpt>
      <trkpt lat="59.9571075" lon="17.6924563">
        <ele>11.1925</ele>
        <time>2012-03-07T15:11:25Z</time>
      </trkpt>
      <trkpt lat="59.9570676" lon="17.6923635">
        <ele>11.6732</ele>
        <time>2012-03-07T15:11:29Z</time>
      </trkpt>
      <trkpt lat="59.9570486" lon="17.6923054">
        <ele>12.1538</ele>
        <time>2012-03-07T15:11:31Z</time>
      </trkpt>
      <trkpt lat="59.9570463" lon="17.6921525">
        <ele>12.1538</ele>
        <time>2012-03-07T15:11:36Z</time>
      </trkpt>
      <trkpt lat="59.9570548" lon="17.6920099">
        <ele>12.1538</ele>
        <time>2012-03-07T15:11:40Z</time>
      </trkpt>
      <trkpt lat="59.9571121" lon="17.6917728">
        <ele>7.34717</ele>
        <time>2012-03-07T15:11:48Z</time>
      </trkpt>
      <trkpt lat="59.9571174" lon="17.6917487">
        <ele>7.34717</ele>
        <time>2012-03-07T15:11:49Z</time>
      </trkpt>
      <trkpt lat="59.9571631" lon="17.6915679">
        <ele>9.2699</ele>
        <time>2012-03-07T15:11:55Z</time>
      </trkpt>
      <trkpt lat="59.9572007" lon="17.6914146">
        <ele>12.6344</ele>
        <time>2012-03-07T15:12:00Z</time>
      </trkpt>
      <trkpt lat="59.9572774" lon="17.691295">
        <ele>12.6344</ele>
        <time>2012-03-07T15:12:06Z</time>
      </trkpt>
      <trkpt lat="59.9573866" lon="17.6912182">
        <ele>10.2312</ele>
        <time>2012-03-07T15:12:13Z</time>
      </trkpt>
      <trkpt lat="59.9575265" lon="17.6910489">
        <ele>6.38586</ele>
        <time>2012-03-07T15:12:23Z</time>
      </trkpt>
      <trkpt lat="59.9575934" lon="17.6908695">
        <ele>9.2699</ele>
        <time>2012-03-07T15:12:29Z</time>
      </trkpt>
      <trkpt lat="59.95764" lon="17.690576">
        <ele>18.4023</ele>
        <time>2012-03-07T15:12:36Z</time>
      </trkpt>
      <trkpt lat="59.9577286" lon="17.6903405">
        <ele>19.3638</ele>
        <time>2012-03-07T15:12:44Z</time>
      </trkpt>
      <trkpt lat="59.9577888" lon="17.6901735">
        <ele>18.4023</ele>
        <time>2012-03-07T15:12:50Z</time>
      </trkpt>
      <trkpt lat="59.9578412" lon="17.690036">
        <ele>16.4797</ele>
        <time>2012-03-07T15:12:56Z</time>
      </trkpt>
      <trkpt lat="59.957884" lon="17.6899477">
        <ele>15.5184</ele>
        <time>2012-03-07T15:13:00Z</time>
      </trkpt>
      <trkpt lat="59.9579375" lon="17.6898351">
        <ele>15.0377</ele>
        <time>2012-03-07T15:13:05Z</time>
      </trkpt>
      <trkpt lat="59.9580288" lon="17.6896562">
        <ele>14.0764</ele>
        <time>2012-03-07T15:13:13Z</time>
      </trkpt>
      <trkpt lat="59.958136" lon="17.6895295">
        <ele>13.5958</ele>
        <time>2012-03-07T15:13:20Z</time>
      </trkpt>
      <trkpt lat="59.9582037" lon="17.6893575">
        <ele>17.4412</ele>
        <time>2012-03-07T15:13:26Z</time>
      </trkpt>
      <trkpt lat="59.9582834" lon="17.6892517">
        <ele>17.4412</ele>
        <time>2012-03-07T15:13:32Z</time>
      </trkpt>
      <trkpt lat="59.9583808" lon="17.689097">
        <ele>19.3638</ele>
        <time>2012-03-07T15:13:40Z</time>
      </trkpt>
      <trkpt lat="59.9584633" lon="17.6889645">
        <ele>19.8444</ele>
        <time>2012-03-07T15:13:47Z</time>
      </trkpt>
      <trkpt lat="59.9584836" lon="17.6888714">
        <ele>17.9218</ele>
        <time>2012-03-07T15:13:50Z</time>
      </trkpt>
      <trkpt lat="59.9584823" lon="17.6887266">
        <ele>15.0377</ele>
        <time>2012-03-07T15:13:56Z</time>
      </trkpt>
      <trkpt lat="59.9584539" lon="17.6886348">
        <ele>15.0377</ele>
        <time>2012-03-07T15:13:59Z</time>
      </trkpt>
      <trkpt lat="59.9583769" lon="17.688461">
        <ele>15.999</ele>
        <time>2012-03-07T15:14:06Z</time>
      </trkpt>
      <trkpt lat="59.9583684" lon="17.6884379">
        <ele>16.4797</ele>
        <time>2012-03-07T15:14:07Z</time>
      </trkpt>
      <trkpt lat="59.958351" lon="17.6883075">
        <ele>15.5184</ele>
        <time>2012-03-07T15:14:11Z</time>
      </trkpt>
      <trkpt lat="59.9583489" lon="17.6881163">
        <ele>15.999</ele>
        <time>2012-03-07T15:14:18Z</time>
      </trkpt>
      <trkpt lat="59.9583559" lon="17.6880713">
        <ele>17.4412</ele>
        <time>2012-03-07T15:14:20Z</time>
      </trkpt>
      <trkpt lat="59.9583721" lon="17.6879574">
        <ele>19.3638</ele>
        <time>2012-03-07T15:14:25Z</time>
      </trkpt>
      <trkpt lat="59.958475" lon="17.6878532">
        <ele>19.3638</ele>
        <time>2012-03-07T15:14:33Z</time>
      </trkpt>
      <trkpt lat="59.9585187" lon="17.6877652">
        <ele>22.7283</ele>
        <time>2012-03-07T15:14:38Z</time>
      </trkpt>
      <trkpt lat="59.9586483" lon="17.6876818">
        <ele>18.8831</ele>
        <time>2012-03-07T15:14:46Z</time>
      </trkpt>
      <trkpt lat="59.958672" lon="17.6876154">
        <ele>16.9604</ele>
        <time>2012-03-07T15:14:49Z</time>
      </trkpt>
      <trkpt lat="59.9586534" lon="17.6874984">
        <ele>16.4797</ele>
        <time>2012-03-07T15:14:53Z</time>
      </trkpt>
      <trkpt lat="59.9585693" lon="17.6872762">
        <ele>15.5184</ele>
        <time>2012-03-07T15:15:02Z</time>
      </trkpt>
      <trkpt lat="59.9585221" lon="17.6872338">
        <ele>15.0377</ele>
        <time>2012-03-07T15:15:06Z</time>
      </trkpt>
      <trkpt lat="59.958424" lon="17.6873016">
        <ele>12.6344</ele>
        <time>2012-03-07T15:15:12Z</time>
      </trkpt>
      <trkpt lat="59.9582969" lon="17.6874309">
        <ele>26.0929</ele>
        <time>2012-03-07T15:33:46Z</time>
      </trkpt>
      <trkpt lat="59.9583021" lon="17.6874324">
        <ele>25.6123</ele>
        <time>2012-03-07T15:33:47Z</time>
      </trkpt>
      <trkpt lat="59.9583163" lon="17.687492">
        <ele>25.1317</ele>
        <time>2012-03-07T15:33:50Z</time>
      </trkpt>
      <trkpt lat="59.9582929" lon="17.6875495">
        <ele>21.2864</ele>
        <time>2012-03-07T15:33:54Z</time>
      </trkpt>
      <trkpt lat="59.9582622" lon="17.6875725">
        <ele>19.3638</ele>
        <time>2012-03-07T15:33:56Z</time>
      </trkpt>
      <trkpt lat="59.9582374" lon="17.6876201">
        <ele>17.9218</ele>
        <time>2012-03-07T15:33:59Z</time>
      </trkpt>
      <trkpt lat="59.9582266" lon="17.6877451">
        <ele>15.999</ele>
        <time>2012-03-07T15:34:05Z</time>
      </trkpt>
      <trkpt lat="59.9582699" lon="17.687817">
        <ele>15.0377</ele>
        <time>2012-03-07T15:34:10Z</time>
      </trkpt>
      <trkpt lat="59.9582965" lon="17.6878894">
        <ele>15.5184</ele>
        <time>2012-03-07T15:34:14Z</time>
      </trkpt>
      <trkpt lat="59.9583132" lon="17.6879854">
        <ele>16.4797</ele>
        <time>2012-03-07T15:34:18Z</time>
      </trkpt>
      <trkpt lat="59.9583772" lon="17.6881168">
        <ele>17.9218</ele>
        <time>2012-03-07T15:34:24Z</time>
      </trkpt>
      <trkpt lat="59.9583944" lon="17.6881413">
        <ele>18.4023</ele>
        <time>2012-03-07T15:34:25Z</time>
      </trkpt>
      <trkpt lat="59.9584326" lon="17.6881951">
        <ele>19.8444</ele>
        <time>2012-03-07T15:34:27Z</time>
      </trkpt>
      <trkpt lat="59.9584675" lon="17.6883531">
        <ele>20.325</ele>
        <time>2012-03-07T15:34:32Z</time>
      </trkpt>
      <trkpt lat="59.958485" lon="17.6884402">
        <ele>19.3638</ele>
        <time>2012-03-07T15:34:36Z</time>
      </trkpt>
      <trkpt lat="59.9584824" lon="17.6885385">
        <ele>17.4412</ele>
        <time>2012-03-07T15:34:39Z</time>
      </trkpt>
      <trkpt lat="59.9585524" lon="17.6887158">
        <ele>21.2864</ele>
        <time>2012-03-07T15:34:46Z</time>
      </trkpt>
      <trkpt lat="59.9585911" lon="17.6888192">
        <ele>21.767</ele>
        <time>2012-03-07T15:34:50Z</time>
      </trkpt>
      <trkpt lat="59.958462" lon="17.6890161">
        <ele>14.0764</ele>
        <time>2012-03-07T15:34:59Z</time>
      </trkpt>
      <trkpt lat="59.9583349" lon="17.6891539">
        <ele>11.6732</ele>
        <time>2012-03-07T15:35:07Z</time>
      </trkpt>
      <trkpt lat="59.9582528" lon="17.6893035">
        <ele>11.1925</ele>
        <time>2012-03-07T15:35:13Z</time>
      </trkpt>
      <trkpt lat="59.9582469" lon="17.6893988">
        <ele>12.1538</ele>
        <time>2012-03-07T15:35:16Z</time>
      </trkpt>
      <trkpt lat="59.9582846" lon="17.6895994">
        <ele>15.0377</ele>
        <time>2012-03-07T15:35:23Z</time>
      </trkpt>
      <trkpt lat="59.9583388" lon="17.6897497">
        <ele>16.9604</ele>
        <time>2012-03-07T15:35:28Z</time>
      </trkpt>
      <trkpt lat="59.9583481" lon="17.6897839">
        <ele>17.4412</ele>
        <time>2012-03-07T15:35:29Z</time>
      </trkpt>
      <trkpt lat="59.9584335" lon="17.6899512">
        <ele>20.325</ele>
        <time>2012-03-07T15:35:35Z</time>
      </trkpt>
      <trkpt lat="59.9585045" lon="17.690162">
        <ele>22.2476</ele>
        <time>2012-03-07T15:35:42Z</time>
      </trkpt>
      <trkpt lat="59.9585301" lon="17.6902621">
        <ele>22.7283</ele>
        <time>2012-03-07T15:35:45Z</time>
      </trkpt>
      <trkpt lat="59.958588" lon="17.6904538">
        <ele>24.1703</ele>
        <time>2012-03-07T15:35:52Z</time>
      </trkpt>
      <trkpt lat="59.9586105" lon="17.690509">
        <ele>25.1317</ele>
        <time>2012-03-07T15:35:54Z</time>
      </trkpt>
      <trkpt lat="59.9586307" lon="17.6905625">
        <ele>26.0929</ele>
        <time>2012-03-07T15:35:56Z</time>
      </trkpt>
      <trkpt lat="59.9586506" lon="17.6906612">
        <ele>26.5736</ele>
        <time>2012-03-07T15:35:59Z</time>
      </trkpt>
      <trkpt lat="59.9586839" lon="17.6907729">
        <ele>28.0155</ele>
        <time>2012-03-07T15:36:03Z</time>
      </trkpt>
      <trkpt lat="59.9587385" lon="17.6910135">
        <ele>28.4962</ele>
        <time>2012-03-07T15:36:11Z</time>
      </trkpt>
      <trkpt lat="59.9587456" lon="17.6912556">
        <ele>27.5349</ele>
        <time>2012-03-07T15:36:18Z</time>
      </trkpt>
      <trkpt lat="59.9587758" lon="17.6914922">
        <ele>26.0929</ele>
        <time>2012-03-07T15:36:25Z</time>
      </trkpt>
      <trkpt lat="59.9588233" lon="17.691644">
        <ele>26.5736</ele>
        <time>2012-03-07T15:36:30Z</time>
      </trkpt>
      <trkpt lat="59.9588514" lon="17.6917493">
        <ele>25.6123</ele>
        <time>2012-03-07T15:36:34Z</time>
      </trkpt>
      <trkpt lat="59.9589171" lon="17.6919139">
        <ele>24.651</ele>
        <time>2012-03-07T15:36:41Z</time>
      </trkpt>
      <trkpt lat="59.9589434" lon="17.6919831">
        <ele>24.1703</ele>
        <time>2012-03-07T15:36:44Z</time>
      </trkpt>
      <trkpt lat="59.9589721" lon="17.6920573">
        <ele>24.651</ele>
        <time>2012-03-07T15:36:47Z</time>
      </trkpt>
      <trkpt lat="59.9589539" lon="17.692254">
        <ele>23.6896</ele>
        <time>2012-03-07T15:36:53Z</time>
      </trkpt>
      <trkpt lat="59.9590028" lon="17.6923832">
        <ele>23.6896</ele>
        <time>2012-03-07T15:36:59Z</time>
      </trkpt>
      <trkpt lat="59.9590168" lon="17.6924019">
        <ele>24.1703</ele>
        <time>2012-03-07T15:37:00Z</time>
      </trkpt>
      <trkpt lat="59.9590989" lon="17.6925362">
        <ele>24.651</ele>
        <time>2012-03-07T15:37:06Z</time>
      </trkpt>
      <trkpt lat="59.959117" lon="17.6925889">
        <ele>24.651</ele>
        <time>2012-03-07T15:37:08Z</time>
      </trkpt>
      <trkpt lat="59.9591708" lon="17.6927464">
        <ele>24.651</ele>
        <time>2012-03-07T15:37:14Z</time>
      </trkpt>
      <trkpt lat="59.9592161" lon="17.6928873">
        <ele>25.6123</ele>
        <time>2012-03-07T15:37:19Z</time>
      </trkpt>
      <trkpt lat="59.9592869" lon="17.6930335">
        <ele>26.5736</ele>
        <time>2012-03-07T15:37:25Z</time>
      </trkpt>
      <trkpt lat="59.9593515" lon="17.6931723">
        <ele>28.0155</ele>
        <time>2012-03-07T15:37:31Z</time>
      </trkpt>
      <trkpt lat="59.959401" lon="17.6933244">
        <ele>27.5349</ele>
        <time>2012-03-07T15:37:36Z</time>
      </trkpt>
      <trkpt lat="59.9594564" lon="17.6935418">
        <ele>27.0543</ele>
        <time>2012-03-07T15:37:43Z</time>
      </trkpt>
      <trkpt lat="59.959512" lon="17.6938081">
        <ele>25.6123</ele>
        <time>2012-03-07T15:37:52Z</time>
      </trkpt>
      <trkpt lat="59.959565" lon="17.6939915">
        <ele>24.1703</ele>
        <time>2012-03-07T15:37:59Z</time>
      </trkpt>
      <trkpt lat="59.9596495" lon="17.6941691">
        <ele>25.1317</ele>
        <time>2012-03-07T15:38:06Z</time>
      </trkpt>
      <trkpt lat="59.9597226" lon="17.6943635">
        <ele>26.5736</ele>
        <time>2012-03-07T15:38:13Z</time>
      </trkpt>
      <trkpt lat="59.9597723" lon="17.6945351">
        <ele>25.6123</ele>
        <time>2012-03-07T15:38:19Z</time>
      </trkpt>
      <trkpt lat="59.9598101" lon="17.6947379">
        <ele>24.651</ele>
        <time>2012-03-07T15:38:26Z</time>
      </trkpt>
      <trkpt lat="59.9598441" lon="17.6949157">
        <ele>24.1703</ele>
        <time>2012-03-07T15:38:32Z</time>
      </trkpt>
      <trkpt lat="59.9599164" lon="17.6951982">
        <ele>23.6896</ele>
        <time>2012-03-07T15:38:42Z</time>
      </trkpt>
      <trkpt lat="59.9599686" lon="17.6953431">
        <ele>24.651</ele>
        <time>2012-03-07T15:38:48Z</time>
      </trkpt>
      <trkpt lat="59.960042" lon="17.6954829">
        <ele>26.5736</ele>
        <time>2012-03-07T15:38:54Z</time>
      </trkpt>
      <trkpt lat="59.9600611" lon="17.6955426">
        <ele>27.0543</ele>
        <time>2012-03-07T15:38:56Z</time>
      </trkpt>
      <trkpt lat="59.9601313" lon="17.6957322">
        <ele>27.5349</ele>
        <time>2012-03-07T15:39:03Z</time>
      </trkpt>
      <trkpt lat="59.9601897" lon="17.6958609">
        <ele>27.5349</ele>
        <time>2012-03-07T15:39:08Z</time>
      </trkpt>
      <trkpt lat="59.9602033" lon="17.6958848">
        <ele>27.0543</ele>
        <time>2012-03-07T15:39:09Z</time>
      </trkpt>
      <trkpt lat="59.9602861" lon="17.6960694">
        <ele>24.1703</ele>
        <time>2012-03-07T15:39:16Z</time>
      </trkpt>
      <trkpt lat="59.9603446" lon="17.6961864">
        <ele>23.6896</ele>
        <time>2012-03-07T15:39:21Z</time>
      </trkpt>
      <trkpt lat="59.9603808" lon="17.6962643">
        <ele>23.6896</ele>
        <time>2012-03-07T15:39:24Z</time>
      </trkpt>
      <trkpt lat="59.9603992" lon="17.696415">
        <ele>21.767</ele>
        <time>2012-03-07T15:39:28Z</time>
      </trkpt>
      <trkpt lat="59.9604129" lon="17.6964789">
        <ele>21.2864</ele>
        <time>2012-03-07T15:39:30Z</time>
      </trkpt>
      <trkpt lat="59.9604519" lon="17.6967155">
        <ele>19.8444</ele>
        <time>2012-03-07T15:39:38Z</time>
      </trkpt>
      <trkpt lat="59.9604685" lon="17.6969323">
        <ele>19.8444</ele>
        <time>2012-03-07T15:39:45Z</time>
      </trkpt>
      <trkpt lat="59.9604593" lon="17.6971011">
        <ele>18.8831</ele>
        <time>2012-03-07T15:39:49Z</time>
      </trkpt>
      <trkpt lat="59.9604572" lon="17.6972484">
        <ele>17.9218</ele>
        <time>2012-03-07T15:39:53Z</time>
      </trkpt>
      <trkpt lat="59.9604533" lon="17.6973209">
        <ele>16.9604</ele>
        <time>2012-03-07T15:39:55Z</time>
      </trkpt>
      <trkpt lat="59.9604208" lon="17.6975028">
        <ele>16.4797</ele>
        <time>2012-03-07T15:40:01Z</time>
      </trkpt>
      <trkpt lat="59.9603985" lon="17.697627">
        <ele>15.5184</ele>
        <time>2012-03-07T15:40:06Z</time>
      </trkpt>
      <trkpt lat="59.9604208" lon="17.6979024">
        <ele>17.4412</ele>
        <time>2012-03-07T15:40:15Z</time>
      </trkpt>
      <trkpt lat="59.9604643" lon="17.6980381">
        <ele>18.4023</ele>
        <time>2012-03-07T15:40:20Z</time>
      </trkpt>
      <trkpt lat="59.9604947" lon="17.6981936">
        <ele>18.4023</ele>
        <time>2012-03-07T15:40:26Z</time>
      </trkpt>
      <trkpt lat="59.9605105" lon="17.6983735">
        <ele>17.9218</ele>
        <time>2012-03-07T15:40:32Z</time>
      </trkpt>
      <trkpt lat="59.96053" lon="17.6985008">
        <ele>16.4797</ele>
        <time>2012-03-07T15:40:37Z</time>
      </trkpt>
      <trkpt lat="59.9605524" lon="17.6986056">
        <ele>16.9604</ele>
        <time>2012-03-07T15:40:41Z</time>
      </trkpt>
      <trkpt lat="59.9605954" lon="17.6986883">
        <ele>17.9218</ele>
        <time>2012-03-07T15:40:45Z</time>
      </trkpt>
      <trkpt lat="59.960655" lon="17.6988201">
        <ele>19.8444</ele>
        <time>2012-03-07T15:40:51Z</time>
      </trkpt>
      <trkpt lat="59.9606565" lon="17.6988888">
        <ele>19.3638</ele>
        <time>2012-03-07T15:40:54Z</time>
      </trkpt>
      <trkpt lat="59.9606715" lon="17.6989862">
        <ele>21.2864</ele>
        <time>2012-03-07T15:40:58Z</time>
      </trkpt>
      <trkpt lat="59.9607072" lon="17.6991591">
        <ele>21.767</ele>
        <time>2012-03-07T15:41:04Z</time>
      </trkpt>
      <trkpt lat="59.9607095" lon="17.6992308">
        <ele>22.2476</ele>
        <time>2012-03-07T15:41:06Z</time>
      </trkpt>
      <trkpt lat="59.9606846" lon="17.6993727">
        <ele>22.2476</ele>
        <time>2012-03-07T15:41:10Z</time>
      </trkpt>
      <trkpt lat="59.9606949" lon="17.699534">
        <ele>23.209</ele>
        <time>2012-03-07T15:41:16Z</time>
      </trkpt>
      <trkpt lat="59.9607064" lon="17.6996875">
        <ele>23.6896</ele>
        <time>2012-03-07T15:41:21Z</time>
      </trkpt>
      <trkpt lat="59.9607169" lon="17.6998079">
        <ele>23.209</ele>
        <time>2012-03-07T15:41:25Z</time>
      </trkpt>
      <trkpt lat="59.9607281" lon="17.7000449">
        <ele>22.2476</ele>
        <time>2012-03-07T15:41:32Z</time>
      </trkpt>
      <trkpt lat="59.9607006" lon="17.7002669">
        <ele>22.2476</ele>
        <time>2012-03-07T15:41:39Z</time>
      </trkpt>
      <trkpt lat="59.9606978" lon="17.7003026">
        <ele>22.2476</ele>
        <time>2012-03-07T15:41:40Z</time>
      </trkpt>
      <trkpt lat="59.9606945" lon="17.7004493">
        <ele>23.6896</ele>
        <time>2012-03-07T15:41:45Z</time>
      </trkpt>
      <trkpt lat="59.9606903" lon="17.7006018">
        <ele>24.1703</ele>
        <time>2012-03-07T15:41:49Z</time>
      </trkpt>
      <trkpt lat="59.9606725" lon="17.7007666">
        <ele>22.7283</ele>
        <time>2012-03-07T15:41:54Z</time>
      </trkpt>
      <trkpt lat="59.9606594" lon="17.7009428">
        <ele>20.325</ele>
        <time>2012-03-07T15:41:59Z</time>
      </trkpt>
      <trkpt lat="59.9606595" lon="17.7009681">
        <ele>19.3638</ele>
        <time>2012-03-07T15:42:00Z</time>
      </trkpt>
      <trkpt lat="59.9606027" lon="17.7011726">
        <ele>16.4797</ele>
        <time>2012-03-07T15:42:08Z</time>
      </trkpt>
      <trkpt lat="59.960572" lon="17.7012965">
        <ele>16.9604</ele>
        <time>2012-03-07T15:42:12Z</time>
      </trkpt>
      <trkpt lat="59.9605586" lon="17.7013478">
        <ele>15.999</ele>
        <time>2012-03-07T15:42:15Z</time>
      </trkpt>
      <trkpt lat="59.9605421" lon="17.7014183">
        <ele>15.0377</ele>
        <time>2012-03-07T15:42:18Z</time>
      </trkpt>
      <trkpt lat="59.9605413" lon="17.7015733">
        <ele>14.0764</ele>
        <time>2012-03-07T15:42:24Z</time>
      </trkpt>
      <trkpt lat="59.960566" lon="17.7016767">
        <ele>15.5184</ele>
        <time>2012-03-07T15:42:29Z</time>
      </trkpt>
      <trkpt lat="59.9605852" lon="17.7017887">
        <ele>15.0377</ele>
        <time>2012-03-07T15:42:34Z</time>
      </trkpt>
      <trkpt lat="59.9605907" lon="17.7019046">
        <ele>16.4797</ele>
        <time>2012-03-07T15:42:38Z</time>
      </trkpt>
      <trkpt lat="59.9605745" lon="17.7020674">
        <ele>17.9218</ele>
        <time>2012-03-07T15:42:43Z</time>
      </trkpt>
      <trkpt lat="59.9605424" lon="17.7021506">
        <ele>20.325</ele>
        <time>2012-03-07T15:42:46Z</time>
      </trkpt>
      <trkpt lat="59.9605317" lon="17.7021985">
        <ele>20.8057</ele>
        <time>2012-03-07T15:42:48Z</time>
      </trkpt>
      <trkpt lat="59.9604859" lon="17.7023">
        <ele>23.6896</ele>
        <time>2012-03-07T15:42:53Z</time>
      </trkpt>
      <trkpt lat="59.9604094" lon="17.7023358">
        <ele>22.2476</ele>
        <time>2012-03-07T15:43:00Z</time>
      </trkpt>
      <trkpt lat="59.9603758" lon="17.7023611">
        <ele>20.8057</ele>
        <time>2012-03-07T15:43:06Z</time>
      </trkpt>
      <trkpt lat="59.9603721" lon="17.7024264">
        <ele>19.8444</ele>
        <time>2012-03-07T15:43:09Z</time>
      </trkpt>
      <trkpt lat="59.9603644" lon="17.7026001">
        <ele>19.3638</ele>
        <time>2012-03-07T15:43:16Z</time>
      </trkpt>
      <trkpt lat="59.9603349" lon="17.7027889">
        <ele>19.3638</ele>
        <time>2012-03-07T15:43:22Z</time>
      </trkpt>
      <trkpt lat="59.9603274" lon="17.7028492">
        <ele>19.3638</ele>
        <time>2012-03-07T15:43:24Z</time>
      </trkpt>
      <trkpt lat="59.9603204" lon="17.7030321">
        <ele>18.8831</ele>
        <time>2012-03-07T15:43:29Z</time>
      </trkpt>
      <trkpt lat="59.9602997" lon="17.7031662">
        <ele>18.4023</ele>
        <time>2012-03-07T15:43:34Z</time>
      </trkpt>
      <trkpt lat="59.9602943" lon="17.7031957">
        <ele>18.4023</ele>
        <time>2012-03-07T15:43:35Z</time>
      </trkpt>
      <trkpt lat="59.960281" lon="17.7033934">
        <ele>20.325</ele>
        <time>2012-03-07T15:43:42Z</time>
      </trkpt>
      <trkpt lat="59.9602598" lon="17.703521">
        <ele>22.7283</ele>
        <time>2012-03-07T15:43:46Z</time>
      </trkpt>
      <trkpt lat="59.96022" lon="17.7036707">
        <ele>23.209</ele>
        <time>2012-03-07T15:43:51Z</time>
      </trkpt>
      <trkpt lat="59.9601899" lon="17.7037432">
        <ele>22.7283</ele>
        <time>2012-03-07T15:43:54Z</time>
      </trkpt>
      <trkpt lat="59.9601608" lon="17.7038915">
        <ele>23.209</ele>
        <time>2012-03-07T15:43:59Z</time>
      </trkpt>
      <trkpt lat="59.960159" lon="17.7039297">
        <ele>23.6896</ele>
        <time>2012-03-07T15:44:00Z</time>
      </trkpt>
      <trkpt lat="59.9601826" lon="17.7040078">
        <ele>24.1703</ele>
        <time>2012-03-07T15:44:03Z</time>
      </trkpt>
      <trkpt lat="59.9602339" lon="17.7041494">
        <ele>25.1317</ele>
        <time>2012-03-07T15:44:09Z</time>
      </trkpt>
      <trkpt lat="59.9602428" lon="17.7042161">
        <ele>25.1317</ele>
        <time>2012-03-07T15:44:11Z</time>
      </trkpt>
      <trkpt lat="59.9602519" lon="17.7042866">
        <ele>24.1703</ele>
        <time>2012-03-07T15:44:13Z</time>
      </trkpt>
      <trkpt lat="59.9603197" lon="17.7043529">
        <ele>24.651</ele>
        <time>2012-03-07T15:44:18Z</time>
      </trkpt>
      <trkpt lat="59.960416" lon="17.704449">
        <ele>26.5736</ele>
        <time>2012-03-07T15:44:24Z</time>
      </trkpt>
      <trkpt lat="59.9604286" lon="17.70447">
        <ele>26.5736</ele>
        <time>2012-03-07T15:44:25Z</time>
      </trkpt>
      <trkpt lat="59.9605264" lon="17.7045561">
        <ele>27.0543</ele>
        <time>2012-03-07T15:44:31Z</time>
      </trkpt>
      <trkpt lat="59.9605732" lon="17.7045942">
        <ele>27.5349</ele>
        <time>2012-03-07T15:44:34Z</time>
      </trkpt>
      <trkpt lat="59.9606312" lon="17.704657">
        <ele>27.5349</ele>
        <time>2012-03-07T15:44:38Z</time>
      </trkpt>
      <trkpt lat="59.9607275" lon="17.7047754">
        <ele>30.4188</ele>
        <time>2012-03-07T15:44:44Z</time>
      </trkpt>
      <trkpt lat="59.9608032" lon="17.7048822">
        <ele>30.4188</ele>
        <time>2012-03-07T15:44:50Z</time>
      </trkpt>
      <trkpt lat="59.9608568" lon="17.7049907">
        <ele>28.9769</ele>
        <time>2012-03-07T15:44:55Z</time>
      </trkpt>
      <trkpt lat="59.9608941" lon="17.7050398">
        <ele>27.5349</ele>
        <time>2012-03-07T15:44:58Z</time>
      </trkpt>
      <trkpt lat="59.9609193" lon="17.7051667">
        <ele>25.6123</ele>
        <time>2012-03-07T15:45:02Z</time>
      </trkpt>
      <trkpt lat="59.9609507" lon="17.7052821">
        <ele>25.1317</ele>
        <time>2012-03-07T15:45:06Z</time>
      </trkpt>
      <trkpt lat="59.9610073" lon="17.7053898">
        <ele>24.651</ele>
        <time>2012-03-07T15:45:11Z</time>
      </trkpt>
      <trkpt lat="59.961036" lon="17.7054276">
        <ele>25.1317</ele>
        <time>2012-03-07T15:45:13Z</time>
      </trkpt>
      <trkpt lat="59.961059" lon="17.7054773">
        <ele>25.1317</ele>
        <time>2012-03-07T15:45:15Z</time>
      </trkpt>
      <trkpt lat="59.9611388" lon="17.7055784">
        <ele>25.1317</ele>
        <time>2012-03-07T15:45:20Z</time>
      </trkpt>
      <trkpt lat="59.961212" lon="17.7057164">
        <ele>25.6123</ele>
        <time>2012-03-07T15:45:26Z</time>
      </trkpt>
      <trkpt lat="59.9612332" lon="17.7057661">
        <ele>25.1317</ele>
        <time>2012-03-07T15:45:28Z</time>
      </trkpt>
      <trkpt lat="59.9613116" lon="17.7058738">
        <ele>24.651</ele>
        <time>2012-03-07T15:45:34Z</time>
      </trkpt>
      <trkpt lat="59.9613785" lon="17.7060039">
        <ele>23.6896</ele>
        <time>2012-03-07T15:45:40Z</time>
      </trkpt>
      <trkpt lat="59.9614033" lon="17.7060768">
        <ele>22.2476</ele>
        <time>2012-03-07T15:45:43Z</time>
      </trkpt>
      <trkpt lat="59.961489" lon="17.706203">
        <ele>23.209</ele>
        <time>2012-03-07T15:45:50Z</time>
      </trkpt>
      <trkpt lat="59.9615416" lon="17.7062685">
        <ele>22.2476</ele>
        <time>2012-03-07T15:45:54Z</time>
      </trkpt>
      <trkpt lat="59.9615983" lon="17.7063654">
        <ele>21.767</ele>
        <time>2012-03-07T15:45:59Z</time>
      </trkpt>
      <trkpt lat="59.9616123" lon="17.7063783">
        <ele>21.2864</ele>
        <time>2012-03-07T15:46:00Z</time>
      </trkpt>
      <trkpt lat="59.9617376" lon="17.7065289">
        <ele>21.767</ele>
        <time>2012-03-07T15:46:08Z</time>
      </trkpt>
      <trkpt lat="59.9618011" lon="17.7066031">
        <ele>22.2476</ele>
        <time>2012-03-07T15:46:12Z</time>
      </trkpt>
      <trkpt lat="59.9619226" lon="17.7067504">
        <ele>23.6896</ele>
        <time>2012-03-07T15:46:20Z</time>
      </trkpt>
      <trkpt lat="59.962033" lon="17.7068422">
        <ele>23.6896</ele>
        <time>2012-03-07T15:46:27Z</time>
      </trkpt>
      <trkpt lat="59.9621837" lon="17.7069347">
        <ele>23.6896</ele>
        <time>2012-03-07T15:46:36Z</time>
      </trkpt>
      <trkpt lat="59.9622749" lon="17.7069973">
        <ele>22.7283</ele>
        <time>2012-03-07T15:46:42Z</time>
      </trkpt>
      <trkpt lat="59.9623623" lon="17.707047">
        <ele>23.209</ele>
        <time>2012-03-07T15:46:48Z</time>
      </trkpt>
      <trkpt lat="59.9624706" lon="17.7070976">
        <ele>23.6896</ele>
        <time>2012-03-07T15:46:55Z</time>
      </trkpt>
      <trkpt lat="59.9625665" lon="17.7071218">
        <ele>24.651</ele>
        <time>2012-03-07T15:47:01Z</time>
      </trkpt>
      <trkpt lat="59.962638" lon="17.707161">
        <ele>24.1703</ele>
        <time>2012-03-07T15:47:07Z</time>
      </trkpt>
      <trkpt lat="59.9627373" lon="17.7071748">
        <ele>24.651</ele>
        <time>2012-03-07T15:47:13Z</time>
      </trkpt>
      <trkpt lat="59.9628292" lon="17.7071855">
        <ele>24.651</ele>
        <time>2012-03-07T15:47:19Z</time>
      </trkpt>
      <trkpt lat="59.9629052" lon="17.7072026">
        <ele>23.209</ele>
        <time>2012-03-07T15:47:24Z</time>
      </trkpt>
      <trkpt lat="59.9630046" lon="17.7071952">
        <ele>23.209</ele>
        <time>2012-03-07T15:47:31Z</time>
      </trkpt>
      <trkpt lat="59.9630767" lon="17.7071853">
        <ele>23.209</ele>
        <time>2012-03-07T15:47:36Z</time>
      </trkpt>
      <trkpt lat="59.9631519" lon="17.7071797">
        <ele>23.209</ele>
        <time>2012-03-07T15:47:40Z</time>
      </trkpt>
      <trkpt lat="59.9632295" lon="17.7071744">
        <ele>21.2864</ele>
        <time>2012-03-07T15:47:45Z</time>
      </trkpt>
      <trkpt lat="59.96335" lon="17.7072066">
        <ele>22.7283</ele>
        <time>2012-03-07T15:47:51Z</time>
      </trkpt>
      <trkpt lat="59.9634044" lon="17.7072211">
        <ele>22.7283</ele>
        <time>2012-03-07T15:47:54Z</time>
      </trkpt>
      <trkpt lat="59.9634973" lon="17.7072116">
        <ele>22.2476</ele>
        <time>2012-03-07T15:48:00Z</time>
      </trkpt>
      <trkpt lat="59.9636542" lon="17.7072238">
        <ele>21.2864</ele>
        <time>2012-03-07T15:48:10Z</time>
      </trkpt>
      <trkpt lat="59.9637869" lon="17.7072469">
        <ele>23.6896</ele>
        <time>2012-03-07T15:48:18Z</time>
      </trkpt>
      <trkpt lat="59.9638811" lon="17.707274">
        <ele>24.1703</ele>
        <time>2012-03-07T15:48:24Z</time>
      </trkpt>
      <trkpt lat="59.9639406" lon="17.7072945">
        <ele>24.651</ele>
        <time>2012-03-07T15:48:28Z</time>
      </trkpt>
      <trkpt lat="59.9640914" lon="17.7072883">
        <ele>25.6123</ele>
        <time>2012-03-07T15:48:37Z</time>
      </trkpt>
      <trkpt lat="59.964207" lon="17.707301">
        <ele>27.0543</ele>
        <time>2012-03-07T15:48:44Z</time>
      </trkpt>
      <trkpt lat="59.9643531" lon="17.7073486">
        <ele>26.0929</ele>
        <time>2012-03-07T15:48:53Z</time>
      </trkpt>
      <trkpt lat="59.9644794" lon="17.7073917">
        <ele>25.1317</ele>
        <time>2012-03-07T15:49:00Z</time>
      </trkpt>
      <trkpt lat="59.9646125" lon="17.7074491">
        <ele>25.6123</ele>
        <time>2012-03-07T15:49:08Z</time>
      </trkpt>
      <trkpt lat="59.9647224" lon="17.7075362">
        <ele>26.5736</ele>
        <time>2012-03-07T15:49:15Z</time>
      </trkpt>
      <trkpt lat="59.9648105" lon="17.7076177">
        <ele>25.6123</ele>
        <time>2012-03-07T15:49:21Z</time>
      </trkpt>
      <trkpt lat="59.964955" lon="17.7077241">
        <ele>26.5736</ele>
        <time>2012-03-07T15:49:30Z</time>
      </trkpt>
      <trkpt lat="59.9650451" lon="17.707836">
        <ele>23.6896</ele>
        <time>2012-03-07T15:49:37Z</time>
      </trkpt>
      <trkpt lat="59.9651171" lon="17.7078882">
        <ele>22.2476</ele>
        <time>2012-03-07T15:49:42Z</time>
      </trkpt>
      <trkpt lat="59.9652013" lon="17.7079178">
        <ele>21.2864</ele>
        <time>2012-03-07T15:49:47Z</time>
      </trkpt>
      <trkpt lat="59.9653239" lon="17.7079358">
        <ele>20.8057</ele>
        <time>2012-03-07T15:49:54Z</time>
      </trkpt>
      <trkpt lat="59.9654435" lon="17.7079896">
        <ele>21.2864</ele>
        <time>2012-03-07T15:50:01Z</time>
      </trkpt>
      <trkpt lat="59.9655311" lon="17.7080638">
        <ele>22.2476</ele>
        <time>2012-03-07T15:50:07Z</time>
      </trkpt>
      <trkpt lat="59.9656222" lon="17.7081762">
        <ele>21.767</ele>
        <time>2012-03-07T15:50:14Z</time>
      </trkpt>
      <trkpt lat="59.9656999" lon="17.7083085">
        <ele>22.2476</ele>
        <time>2012-03-07T15:50:20Z</time>
      </trkpt>
      <trkpt lat="59.9658144" lon="17.7084432">
        <ele>22.7283</ele>
        <time>2012-03-07T15:50:28Z</time>
      </trkpt>
      <trkpt lat="59.9659035" lon="17.7086392">
        <ele>23.209</ele>
        <time>2012-03-07T15:50:36Z</time>
      </trkpt>
      <trkpt lat="59.9659471" lon="17.708783">
        <ele>21.2864</ele>
        <time>2012-03-07T15:50:41Z</time>
      </trkpt>
      <trkpt lat="59.9659854" lon="17.7088897">
        <ele>19.8444</ele>
        <time>2012-03-07T15:50:46Z</time>
      </trkpt>
      <trkpt lat="59.966041" lon="17.7090273">
        <ele>17.4412</ele>
        <time>2012-03-07T15:50:52Z</time>
      </trkpt>
      <trkpt lat="59.9660812" lon="17.7091811">
        <ele>17.4412</ele>
        <time>2012-03-07T15:50:58Z</time>
      </trkpt>
      <trkpt lat="59.9661174" lon="17.709313">
        <ele>15.999</ele>
        <time>2012-03-07T15:51:03Z</time>
      </trkpt>
      <trkpt lat="59.966175" lon="17.7095523">
        <ele>17.4412</ele>
        <time>2012-03-07T15:51:11Z</time>
      </trkpt>
      <trkpt lat="59.9662153" lon="17.7097257">
        <ele>16.9604</ele>
        <time>2012-03-07T15:51:17Z</time>
      </trkpt>
      <trkpt lat="59.9662674" lon="17.7099429">
        <ele>19.3638</ele>
        <time>2012-03-07T15:51:24Z</time>
      </trkpt>
      <trkpt lat="59.9663229" lon="17.7101544">
        <ele>18.8831</ele>
        <time>2012-03-07T15:51:32Z</time>
      </trkpt>
      <trkpt lat="59.9663914" lon="17.7103748">
        <ele>21.2864</ele>
        <time>2012-03-07T15:51:40Z</time>
      </trkpt>
      <trkpt lat="59.9664482" lon="17.7105732">
        <ele>22.2476</ele>
        <time>2012-03-07T15:51:47Z</time>
      </trkpt>
      <trkpt lat="59.9665194" lon="17.7107871">
        <ele>22.7283</ele>
        <time>2012-03-07T15:51:55Z</time>
      </trkpt>
      <trkpt lat="59.9665762" lon="17.7109839">
        <ele>22.7283</ele>
        <time>2012-03-07T15:52:02Z</time>
      </trkpt>
      <trkpt lat="59.9666121" lon="17.7111585">
        <ele>22.2476</ele>
        <time>2012-03-07T15:52:08Z</time>
      </trkpt>
      <trkpt lat="59.966673" lon="17.7114392">
        <ele>22.7283</ele>
        <time>2012-03-07T15:52:17Z</time>
      </trkpt>
      <trkpt lat="59.9667318" lon="17.7116085">
        <ele>23.209</ele>
        <time>2012-03-07T15:52:23Z</time>
      </trkpt>
      <trkpt lat="59.9667619" lon="17.711695">
        <ele>24.1703</ele>
        <time>2012-03-07T15:52:26Z</time>
      </trkpt>
      <trkpt lat="59.966812" lon="17.7118578">
        <ele>24.651</ele>
        <time>2012-03-07T15:52:32Z</time>
      </trkpt>
      <trkpt lat="59.9668227" lon="17.7118779">
        <ele>24.651</ele>
        <time>2012-03-07T15:52:33Z</time>
      </trkpt>
      <trkpt lat="59.9668991" lon="17.7120729">
        <ele>21.2864</ele>
        <time>2012-03-07T15:52:41Z</time>
      </trkpt>
      <trkpt lat="59.9669561" lon="17.7122454">
        <ele>18.8831</ele>
        <time>2012-03-07T15:52:48Z</time>
      </trkpt>
      <trkpt lat="59.9670082" lon="17.712415">
        <ele>18.8831</ele>
        <time>2012-03-07T15:52:54Z</time>
      </trkpt>
      <trkpt lat="59.9670793" lon="17.7126466">
        <ele>20.8057</ele>
        <time>2012-03-07T15:53:02Z</time>
      </trkpt>
      <trkpt lat="59.9671335" lon="17.712861">
        <ele>22.2476</ele>
        <time>2012-03-07T15:53:09Z</time>
      </trkpt>
      <trkpt lat="59.9671995" lon="17.7131141">
        <ele>26.0929</ele>
        <time>2012-03-07T15:53:17Z</time>
      </trkpt>
      <trkpt lat="59.9672508" lon="17.7133419">
        <ele>28.4962</ele>
        <time>2012-03-07T15:53:24Z</time>
      </trkpt>
      <trkpt lat="59.9672574" lon="17.7133771">
        <ele>28.4962</ele>
        <time>2012-03-07T15:53:25Z</time>
      </trkpt>
      <trkpt lat="59.9672902" lon="17.7135793">
        <ele>29.4575</ele>
        <time>2012-03-07T15:53:31Z</time>
      </trkpt>
      <trkpt lat="59.9673347" lon="17.7137828">
        <ele>29.4575</ele>
        <time>2012-03-07T15:53:38Z</time>
      </trkpt>
      <trkpt lat="59.967353" lon="17.7139594">
        <ele>29.4575</ele>
        <time>2012-03-07T15:53:43Z</time>
      </trkpt>
      <trkpt lat="59.9673622" lon="17.7141541">
        <ele>27.0543</ele>
        <time>2012-03-07T15:53:50Z</time>
      </trkpt>
      <trkpt lat="59.9673954" lon="17.7143852">
        <ele>26.0929</ele>
        <time>2012-03-07T15:53:58Z</time>
      </trkpt>
      <trkpt lat="59.9674311" lon="17.7146253">
        <ele>26.0929</ele>
        <time>2012-03-07T15:54:06Z</time>
      </trkpt>
      <trkpt lat="59.9674742" lon="17.7148038">
        <ele>28.0155</ele>
        <time>2012-03-07T15:54:12Z</time>
      </trkpt>
      <trkpt lat="59.9675052" lon="17.7149431">
        <ele>30.4188</ele>
        <time>2012-03-07T15:54:17Z</time>
      </trkpt>
      <trkpt lat="59.9674936" lon="17.715067">
        <ele>29.4575</ele>
        <time>2012-03-07T15:54:21Z</time>
      </trkpt>
      <trkpt lat="59.9674726" lon="17.7151535">
        <ele>26.5736</ele>
        <time>2012-03-07T15:54:23Z</time>
      </trkpt>
      <trkpt lat="59.9674736" lon="17.7153324">
        <ele>22.7283</ele>
        <time>2012-03-07T15:54:29Z</time>
      </trkpt>
      <trkpt lat="59.9675145" lon="17.7155181">
        <ele>24.1703</ele>
        <time>2012-03-07T15:54:34Z</time>
      </trkpt>
      <trkpt lat="59.9675787" lon="17.7158111">
        <ele>26.0929</ele>
        <time>2012-03-07T15:54:44Z</time>
      </trkpt>
      <trkpt lat="59.9676372" lon="17.7160345">
        <ele>26.5736</ele>
        <time>2012-03-07T15:54:52Z</time>
      </trkpt>
      <trkpt lat="59.9676673" lon="17.7161629">
        <ele>25.1317</ele>
        <time>2012-03-07T15:54:57Z</time>
      </trkpt>
      <trkpt lat="59.9677518" lon="17.716378">
        <ele>25.1317</ele>
        <time>2012-03-07T15:55:05Z</time>
      </trkpt>
      <trkpt lat="59.9678124" lon="17.7165105">
        <ele>25.6123</ele>
        <time>2012-03-07T15:55:11Z</time>
      </trkpt>
      <trkpt lat="59.9678227" lon="17.7165221">
        <ele>25.1317</ele>
        <time>2012-03-07T15:55:12Z</time>
      </trkpt>
      <trkpt lat="59.9678971" lon="17.7166627">
        <ele>25.1317</ele>
        <time>2012-03-07T15:55:19Z</time>
      </trkpt>
      <trkpt lat="59.9679901" lon="17.7167829">
        <ele>26.5736</ele>
        <time>2012-03-07T15:55:26Z</time>
      </trkpt>
      <trkpt lat="59.9681069" lon="17.7169519">
        <ele>26.5736</ele>
        <time>2012-03-07T15:55:35Z</time>
      </trkpt>
      <trkpt lat="59.9682236" lon="17.7170907">
        <ele>27.0543</ele>
        <time>2012-03-07T15:55:44Z</time>
      </trkpt>
      <trkpt lat="59.9682651" lon="17.7171403">
        <ele>27.0543</ele>
        <time>2012-03-07T15:55:47Z</time>
      </trkpt>
      <trkpt lat="59.9683329" lon="17.7171971">
        <ele>28.9769</ele>
        <time>2012-03-07T15:55:51Z</time>
      </trkpt>
      <trkpt lat="59.9684679" lon="17.7172874">
        <ele>28.9769</ele>
        <time>2012-03-07T15:55:59Z</time>
      </trkpt>
      <trkpt lat="59.9685526" lon="17.7173371">
        <ele>27.0543</ele>
        <time>2012-03-07T15:56:05Z</time>
      </trkpt>
      <trkpt lat="59.9686608" lon="17.717391">
        <ele>27.5349</ele>
        <time>2012-03-07T15:56:12Z</time>
      </trkpt>
      <trkpt lat="59.9687975" lon="17.7174473">
        <ele>28.4962</ele>
        <time>2012-03-07T15:56:21Z</time>
      </trkpt>
      <trkpt lat="59.9688618" lon="17.7174383">
        <ele>28.4962</ele>
        <time>2012-03-07T15:56:26Z</time>
      </trkpt>
      <trkpt lat="59.9689343" lon="17.7173508">
        <ele>24.1703</ele>
        <time>2012-03-07T15:56:32Z</time>
      </trkpt>
      <trkpt lat="59.9690526" lon="17.7173031">
        <ele>23.209</ele>
        <time>2012-03-07T15:56:39Z</time>
      </trkpt>
      <trkpt lat="59.9691491" lon="17.7173078">
        <ele>24.1703</ele>
        <time>2012-03-07T15:56:45Z</time>
      </trkpt>
      <trkpt lat="59.9693001" lon="17.7173637">
        <ele>26.5736</ele>
        <time>2012-03-07T15:56:54Z</time>
      </trkpt>
      <trkpt lat="59.9694041" lon="17.7174131">
        <ele>27.5349</ele>
        <time>2012-03-07T15:57:00Z</time>
      </trkpt>
      <trkpt lat="59.9695368" lon="17.7174936">
        <ele>28.9769</ele>
        <time>2012-03-07T15:57:08Z</time>
      </trkpt>
      <trkpt lat="59.9696591" lon="17.7175501">
        <ele>29.4575</ele>
        <time>2012-03-07T15:57:15Z</time>
      </trkpt>
      <trkpt lat="59.9697422" lon="17.7176337">
        <ele>30.4188</ele>
        <time>2012-03-07T15:57:21Z</time>
      </trkpt>
      <trkpt lat="59.9697968" lon="17.7176781">
        <ele>29.4575</ele>
        <time>2012-03-07T15:57:25Z</time>
      </trkpt>
      <trkpt lat="59.9699108" lon="17.7177607">
        <ele>31.8607</ele>
        <time>2012-03-07T15:57:32Z</time>
      </trkpt>
      <trkpt lat="59.9700226" lon="17.7178446">
        <ele>32.8223</ele>
        <time>2012-03-07T15:57:39Z</time>
      </trkpt>
      <trkpt lat="59.9701355" lon="17.7179619">
        <ele>31.8607</ele>
        <time>2012-03-07T15:57:47Z</time>
      </trkpt>
      <trkpt lat="59.9702542" lon="17.7180605">
        <ele>30.4188</ele>
        <time>2012-03-07T15:57:55Z</time>
      </trkpt>
      <trkpt lat="59.9703609" lon="17.7181403">
        <ele>30.8995</ele>
        <time>2012-03-07T15:58:02Z</time>
      </trkpt>
      <trkpt lat="59.9704905" lon="17.7182638">
        <ele>27.5349</ele>
        <time>2012-03-07T15:58:12Z</time>
      </trkpt>
      <trkpt lat="59.9705563" lon="17.7183153">
        <ele>26.0929</ele>
        <time>2012-03-07T15:58:16Z</time>
      </trkpt>
      <trkpt lat="59.9706969" lon="17.7184157">
        <ele>26.5736</ele>
        <time>2012-03-07T15:58:24Z</time>
      </trkpt>
      <trkpt lat="59.970776" lon="17.7184801">
        <ele>27.0543</ele>
        <time>2012-03-07T15:58:29Z</time>
      </trkpt>
      <trkpt lat="59.9708689" lon="17.7185649">
        <ele>29.4575</ele>
        <time>2012-03-07T15:58:35Z</time>
      </trkpt>
      <trkpt lat="59.9710031" lon="17.7186749">
        <ele>30.8995</ele>
        <time>2012-03-07T15:58:44Z</time>
      </trkpt>
      <trkpt lat="59.971153" lon="17.7188048">
        <ele>32.3416</ele>
        <time>2012-03-07T15:58:54Z</time>
      </trkpt>
      <trkpt lat="59.9712462" lon="17.7189239">
        <ele>28.4962</ele>
        <time>2012-03-07T15:59:02Z</time>
      </trkpt>
      <trkpt lat="59.9713396" lon="17.7190249">
        <ele>24.1703</ele>
        <time>2012-03-07T15:59:10Z</time>
      </trkpt>
      <trkpt lat="59.9714777" lon="17.7191468">
        <ele>25.1317</ele>
        <time>2012-03-07T15:59:20Z</time>
      </trkpt>
      <trkpt lat="59.9715767" lon="17.7192421">
        <ele>24.651</ele>
        <time>2012-03-07T15:59:27Z</time>
      </trkpt>
      <trkpt lat="59.9717186" lon="17.7193819">
        <ele>24.651</ele>
        <time>2012-03-07T15:59:37Z</time>
      </trkpt>
      <trkpt lat="59.9718192" lon="17.7194594">
        <ele>24.1703</ele>
        <time>2012-03-07T15:59:44Z</time>
      </trkpt>
      <trkpt lat="59.9719127" lon="17.719529">
        <ele>24.651</ele>
        <time>2012-03-07T15:59:50Z</time>
      </trkpt>
      <trkpt lat="59.9720194" lon="17.7196528">
        <ele>23.6896</ele>
        <time>2012-03-07T15:59:58Z</time>
      </trkpt>
      <trkpt lat="59.9721263" lon="17.7197409">
        <ele>24.1703</ele>
        <time>2012-03-07T16:00:05Z</time>
      </trkpt>
      <trkpt lat="59.9722432" lon="17.7198632">
        <ele>25.6123</ele>
        <time>2012-03-07T16:00:13Z</time>
      </trkpt>
      <trkpt lat="59.9723723" lon="17.7199757">
        <ele>23.209</ele>
        <time>2012-03-07T16:00:22Z</time>
      </trkpt>
      <trkpt lat="59.9725179" lon="17.7201013">
        <ele>23.209</ele>
        <time>2012-03-07T16:00:32Z</time>
      </trkpt>
      <trkpt lat="59.9726043" lon="17.720205">
        <ele>23.209</ele>
        <time>2012-03-07T16:00:38Z</time>
      </trkpt>
      <trkpt lat="59.9726915" lon="17.7203157">
        <ele>23.209</ele>
        <time>2012-03-07T16:00:44Z</time>
      </trkpt>
      <trkpt lat="59.9727956" lon="17.7204634">
        <ele>22.7283</ele>
        <time>2012-03-07T16:00:51Z</time>
      </trkpt>
      <trkpt lat="59.9729132" lon="17.7205923">
        <ele>22.2476</ele>
        <time>2012-03-07T16:00:59Z</time>
      </trkpt>
      <trkpt lat="59.973023" lon="17.7207335">
        <ele>21.2864</ele>
        <time>2012-03-07T16:01:06Z</time>
      </trkpt>
      <trkpt lat="59.9731075" lon="17.7208565">
        <ele>19.8444</ele>
        <time>2012-03-07T16:01:12Z</time>
      </trkpt>
      <trkpt lat="59.9731794" lon="17.7209726">
        <ele>17.9218</ele>
        <time>2012-03-07T16:01:18Z</time>
      </trkpt>
      <trkpt lat="59.9732614" lon="17.7210956">
        <ele>15.5184</ele>
        <time>2012-03-07T16:01:25Z</time>
      </trkpt>
      <trkpt lat="59.9733228" lon="17.7211866">
        <ele>14.557</ele>
        <time>2012-03-07T16:01:30Z</time>
      </trkpt>
      <trkpt lat="59.9733846" lon="17.7212798">
        <ele>12.6344</ele>
        <time>2012-03-07T16:01:35Z</time>
      </trkpt>
      <trkpt lat="59.9734426" lon="17.7213488">
        <ele>10.7118</ele>
        <time>2012-03-07T16:01:40Z</time>
      </trkpt>
      <trkpt lat="59.9735481" lon="17.7215603">
        <ele>12.6344</ele>
        <time>2012-03-07T16:01:51Z</time>
      </trkpt>
      <trkpt lat="59.9736475" lon="17.7217669">
        <ele>15.0377</ele>
        <time>2012-03-07T16:02:00Z</time>
      </trkpt>
      <trkpt lat="59.9737121" lon="17.7219377">
        <ele>15.999</ele>
        <time>2012-03-07T16:02:07Z</time>
      </trkpt>
      <trkpt lat="59.9738108" lon="17.7221968">
        <ele>18.4023</ele>
        <time>2012-03-07T16:02:17Z</time>
      </trkpt>
      <trkpt lat="59.9738834" lon="17.7224278">
        <ele>20.325</ele>
        <time>2012-03-07T16:02:25Z</time>
      </trkpt>
      <trkpt lat="59.9739536" lon="17.7227069">
        <ele>21.767</ele>
        <time>2012-03-07T16:02:35Z</time>
      </trkpt>
      <trkpt lat="59.9740057" lon="17.7229008">
        <ele>23.209</ele>
        <time>2012-03-07T16:02:42Z</time>
      </trkpt>
      <trkpt lat="59.9740638" lon="17.7231704">
        <ele>23.6896</ele>
        <time>2012-03-07T16:02:51Z</time>
      </trkpt>
      <trkpt lat="59.9741159" lon="17.7234488">
        <ele>25.6123</ele>
        <time>2012-03-07T16:03:00Z</time>
      </trkpt>
      <trkpt lat="59.9741532" lon="17.7237271">
        <ele>26.0929</ele>
        <time>2012-03-07T16:03:09Z</time>
      </trkpt>
      <trkpt lat="59.9741862" lon="17.7239031">
        <ele>27.0543</ele>
        <time>2012-03-07T16:03:15Z</time>
      </trkpt>
      <trkpt lat="59.9742413" lon="17.7241724">
        <ele>30.4188</ele>
        <time>2012-03-07T16:03:24Z</time>
      </trkpt>
      <trkpt lat="59.974299" lon="17.7244843">
        <ele>32.8223</ele>
        <time>2012-03-07T16:03:34Z</time>
      </trkpt>
      <trkpt lat="59.9742968" lon="17.7245117">
        <ele>31.3801</ele>
        <time>2012-03-07T16:03:35Z</time>
      </trkpt>
      <trkpt lat="59.9743109" lon="17.7246859">
        <ele>30.4188</ele>
        <time>2012-03-07T16:03:41Z</time>
      </trkpt>
      <trkpt lat="59.9743404" lon="17.7249341">
        <ele>30.4188</ele>
        <time>2012-03-07T16:03:49Z</time>
      </trkpt>
      <trkpt lat="59.974379" lon="17.7251355">
        <ele>31.3801</ele>
        <time>2012-03-07T16:03:56Z</time>
      </trkpt>
      <trkpt lat="59.9744178" lon="17.7254162">
        <ele>31.8607</ele>
        <time>2012-03-07T16:04:05Z</time>
      </trkpt>
      <trkpt lat="59.9744071" lon="17.7256632">
        <ele>27.5349</ele>
        <time>2012-03-07T16:04:13Z</time>
      </trkpt>
      <trkpt lat="59.9744124" lon="17.7259156">
        <ele>25.6123</ele>
        <time>2012-03-07T16:04:21Z</time>
      </trkpt>
      <trkpt lat="59.974417" lon="17.726142">
        <ele>25.1317</ele>
        <time>2012-03-07T16:04:28Z</time>
      </trkpt>
      <trkpt lat="59.9744273" lon="17.7264315">
        <ele>25.6123</ele>
        <time>2012-03-07T16:04:37Z</time>
      </trkpt>
      <trkpt lat="59.974435" lon="17.7267184">
        <ele>24.651</ele>
        <time>2012-03-07T16:04:46Z</time>
      </trkpt>
      <trkpt lat="59.9744442" lon="17.7269848">
        <ele>25.1317</ele>
        <time>2012-03-07T16:04:54Z</time>
      </trkpt>
      <trkpt lat="59.9744454" lon="17.727154">
        <ele>24.651</ele>
        <time>2012-03-07T16:04:59Z</time>
      </trkpt>
      <trkpt lat="59.9744502" lon="17.7273431">
        <ele>24.651</ele>
        <time>2012-03-07T16:05:05Z</time>
      </trkpt>
      <trkpt lat="59.9744469" lon="17.7275521">
        <ele>23.6896</ele>
        <time>2012-03-07T16:05:11Z</time>
      </trkpt>
      <trkpt lat="59.9744522" lon="17.7277618">
        <ele>22.7283</ele>
        <time>2012-03-07T16:05:18Z</time>
      </trkpt>
      <trkpt lat="59.974461" lon="17.7279607">
        <ele>23.209</ele>
        <time>2012-03-07T16:05:24Z</time>
      </trkpt>
      <trkpt lat="59.9744753" lon="17.728186">
        <ele>24.1703</ele>
        <time>2012-03-07T16:05:31Z</time>
      </trkpt>
      <trkpt lat="59.9744761" lon="17.7284424">
        <ele>22.7283</ele>
        <time>2012-03-07T16:05:39Z</time>
      </trkpt>
      <trkpt lat="59.9744686" lon="17.7286191">
        <ele>21.2864</ele>
        <time>2012-03-07T16:05:44Z</time>
      </trkpt>
      <trkpt lat="59.9744631" lon="17.7288657">
        <ele>20.8057</ele>
        <time>2012-03-07T16:05:51Z</time>
      </trkpt>
      <trkpt lat="59.9744652" lon="17.729121">
        <ele>20.325</ele>
        <time>2012-03-07T16:05:59Z</time>
      </trkpt>
      <trkpt lat="59.9744704" lon="17.7294093">
        <ele>20.8057</ele>
        <time>2012-03-07T16:06:08Z</time>
      </trkpt>
      <trkpt lat="59.9744715" lon="17.7294656">
        <ele>20.325</ele>
        <time>2012-03-07T16:06:10Z</time>
      </trkpt>
      <trkpt lat="59.9744506" lon="17.7298435">
        <ele>19.8444</ele>
        <time>2012-03-07T16:06:22Z</time>
      </trkpt>
      <trkpt lat="59.974433" lon="17.7299985">
        <ele>19.3638</ele>
        <time>2012-03-07T16:06:27Z</time>
      </trkpt>
      <trkpt lat="59.9744316" lon="17.7301651">
        <ele>20.325</ele>
        <time>2012-03-07T16:06:33Z</time>
      </trkpt>
      <trkpt lat="59.9744106" lon="17.7304392">
        <ele>19.8444</ele>
        <time>2012-03-07T16:06:42Z</time>
      </trkpt>
      <trkpt lat="59.9743935" lon="17.7306687">
        <ele>20.325</ele>
        <time>2012-03-07T16:06:49Z</time>
      </trkpt>
      <trkpt lat="59.9743671" lon="17.7309527">
        <ele>19.3638</ele>
        <time>2012-03-07T16:06:58Z</time>
      </trkpt>
      <trkpt lat="59.9743527" lon="17.7312098">
        <ele>19.3638</ele>
        <time>2012-03-07T16:07:06Z</time>
      </trkpt>
      <trkpt lat="59.9743481" lon="17.7314666">
        <ele>19.3638</ele>
        <time>2012-03-07T16:07:14Z</time>
      </trkpt>
      <trkpt lat="59.9743471" lon="17.7317567">
        <ele>19.8444</ele>
        <time>2012-03-07T16:07:23Z</time>
      </trkpt>
      <trkpt lat="59.9743392" lon="17.7320162">
        <ele>17.9218</ele>
        <time>2012-03-07T16:07:31Z</time>
      </trkpt>
      <trkpt lat="59.9743388" lon="17.7322444">
        <ele>16.9604</ele>
        <time>2012-03-07T16:07:38Z</time>
      </trkpt>
      <trkpt lat="59.974331" lon="17.7325047">
        <ele>15.0377</ele>
        <time>2012-03-07T16:07:46Z</time>
      </trkpt>
      <trkpt lat="59.9743165" lon="17.7328201">
        <ele>13.1151</ele>
        <time>2012-03-07T16:07:56Z</time>
      </trkpt>
      <trkpt lat="59.9743184" lon="17.7332023">
        <ele>14.0764</ele>
        <time>2012-03-07T16:08:08Z</time>
      </trkpt>
      <trkpt lat="59.9743189" lon="17.7334287">
        <ele>15.999</ele>
        <time>2012-03-07T16:08:15Z</time>
      </trkpt>
      <trkpt lat="59.9743165" lon="17.7336832">
        <ele>16.9604</ele>
        <time>2012-03-07T16:08:23Z</time>
      </trkpt>
      <trkpt lat="59.9742936" lon="17.7339369">
        <ele>16.4797</ele>
        <time>2012-03-07T16:08:31Z</time>
      </trkpt>
      <trkpt lat="59.9742862" lon="17.7341">
        <ele>16.4797</ele>
        <time>2012-03-07T16:08:36Z</time>
      </trkpt>
      <trkpt lat="59.9742837" lon="17.7342965">
        <ele>17.4412</ele>
        <time>2012-03-07T16:08:42Z</time>
      </trkpt>
      <trkpt lat="59.9742838" lon="17.7345592">
        <ele>17.9218</ele>
        <time>2012-03-07T16:08:50Z</time>
      </trkpt>
      <trkpt lat="59.9742801" lon="17.7348041">
        <ele>16.9604</ele>
        <time>2012-03-07T16:08:58Z</time>
      </trkpt>
      <trkpt lat="59.9742957" lon="17.7351025">
        <ele>16.4797</ele>
        <time>2012-03-07T16:09:08Z</time>
      </trkpt>
      <trkpt lat="59.974338" lon="17.7353785">
        <ele>18.8831</ele>
        <time>2012-03-07T16:09:17Z</time>
      </trkpt>
      <trkpt lat="59.9743821" lon="17.7356944">
        <ele>20.325</ele>
        <time>2012-03-07T16:09:27Z</time>
      </trkpt>
      <trkpt lat="59.9744302" lon="17.7359199">
        <ele>20.325</ele>
        <time>2012-03-07T16:09:35Z</time>
      </trkpt>
      <trkpt lat="59.9744504" lon="17.7360335">
        <ele>20.325</ele>
        <time>2012-03-07T16:09:39Z</time>
      </trkpt>
      <trkpt lat="59.9745149" lon="17.736317">
        <ele>20.325</ele>
        <time>2012-03-07T16:09:49Z</time>
      </trkpt>
      <trkpt lat="59.9745707" lon="17.7365426">
        <ele>20.325</ele>
        <time>2012-03-07T16:09:57Z</time>
      </trkpt>
      <trkpt lat="59.9746561" lon="17.7367788">
        <ele>22.2476</ele>
        <time>2012-03-07T16:10:06Z</time>
      </trkpt>
      <trkpt lat="59.9747455" lon="17.7369742">
        <ele>24.651</ele>
        <time>2012-03-07T16:10:14Z</time>
      </trkpt>
      <trkpt lat="59.9747847" lon="17.7370832">
        <ele>25.1317</ele>
        <time>2012-03-07T16:10:18Z</time>
      </trkpt>
      <trkpt lat="59.9748617" lon="17.7372156">
        <ele>27.0543</ele>
        <time>2012-03-07T16:10:24Z</time>
      </trkpt>
      <trkpt lat="59.9748728" lon="17.7372424">
        <ele>27.0543</ele>
        <time>2012-03-07T16:10:25Z</time>
      </trkpt>
      <trkpt lat="59.9749666" lon="17.7374294">
        <ele>28.9769</ele>
        <time>2012-03-07T16:10:33Z</time>
      </trkpt>
      <trkpt lat="59.9750469" lon="17.737552">
        <ele>30.4188</ele>
        <time>2012-03-07T16:10:39Z</time>
      </trkpt>
      <trkpt lat="59.9751321" lon="17.7376958">
        <ele>30.4188</ele>
        <time>2012-03-07T16:10:46Z</time>
      </trkpt>
      <trkpt lat="59.9751932" lon="17.7378192">
        <ele>28.9769</ele>
        <time>2012-03-07T16:10:51Z</time>
      </trkpt>
      <trkpt lat="59.9752643" lon="17.7379535">
        <ele>28.4962</ele>
        <time>2012-03-07T16:10:58Z</time>
      </trkpt>
      <trkpt lat="59.9753421" lon="17.7381271">
        <ele>26.5736</ele>
        <time>2012-03-07T16:11:05Z</time>
      </trkpt>
      <trkpt lat="59.9753737" lon="17.7381913">
        <ele>26.0929</ele>
        <time>2012-03-07T16:11:08Z</time>
      </trkpt>
      <trkpt lat="59.9754064" lon="17.7382333">
        <ele>25.1317</ele>
        <time>2012-03-07T16:11:10Z</time>
      </trkpt>
      <trkpt lat="59.9754804" lon="17.7383606">
        <ele>25.1317</ele>
        <time>2012-03-07T16:11:16Z</time>
      </trkpt>
      <trkpt lat="59.9755384" lon="17.7384652">
        <ele>22.7283</ele>
        <time>2012-03-07T16:11:21Z</time>
      </trkpt>
      <trkpt lat="59.9755917" lon="17.7386046">
        <ele>19.3638</ele>
        <time>2012-03-07T16:11:27Z</time>
      </trkpt>
      <trkpt lat="59.9756124" lon="17.7386441">
        <ele>18.8831</ele>
        <time>2012-03-07T16:11:29Z</time>
      </trkpt>
      <trkpt lat="59.9756301" lon="17.7386704">
        <ele>18.4023</ele>
        <time>2012-03-07T16:11:31Z</time>
      </trkpt>
      <trkpt lat="59.9756742" lon="17.7387931">
        <ele>15.0377</ele>
        <time>2012-03-07T16:11:36Z</time>
      </trkpt>
      <trkpt lat="59.9757342" lon="17.738913">
        <ele>14.557</ele>
        <time>2012-03-07T16:11:43Z</time>
      </trkpt>
      <trkpt lat="59.9757427" lon="17.7389337">
        <ele>14.557</ele>
        <time>2012-03-07T16:11:44Z</time>
      </trkpt>
      <trkpt lat="59.9758222" lon="17.7390516">
        <ele>14.557</ele>
        <time>2012-03-07T16:11:51Z</time>
      </trkpt>
      <trkpt lat="59.9758342" lon="17.7390766">
        <ele>15.0377</ele>
        <time>2012-03-07T16:11:52Z</time>
      </trkpt>
      <trkpt lat="59.975942" lon="17.7392298">
        <ele>17.4412</ele>
        <time>2012-03-07T16:12:00Z</time>
      </trkpt>
      <trkpt lat="59.9760554" lon="17.7393552">
        <ele>23.209</ele>
        <time>2012-03-07T16:12:08Z</time>
      </trkpt>
      <trkpt lat="59.9761497" lon="17.7394904">
        <ele>26.5736</ele>
        <time>2012-03-07T16:12:15Z</time>
      </trkpt>
      <trkpt lat="59.976227" lon="17.7396209">
        <ele>29.4575</ele>
        <time>2012-03-07T16:12:21Z</time>
      </trkpt>
      <trkpt lat="59.9762616" lon="17.7396864">
        <ele>29.9381</ele>
        <time>2012-03-07T16:12:24Z</time>
      </trkpt>
      <trkpt lat="59.9763316" lon="17.7398206">
        <ele>31.3801</ele>
        <time>2012-03-07T16:12:31Z</time>
      </trkpt>
      <trkpt lat="59.9763438" lon="17.7398173">
        <ele>31.3801</ele>
        <time>2012-03-07T16:12:32Z</time>
      </trkpt>
      <trkpt lat="59.9764116" lon="17.7396682">
        <ele>29.4575</ele>
        <time>2012-03-07T16:12:39Z</time>
      </trkpt>
      <trkpt lat="59.9764728" lon="17.7395278">
        <ele>25.1317</ele>
        <time>2012-03-07T16:12:46Z</time>
      </trkpt>
      <trkpt lat="59.9765606" lon="17.7394392">
        <ele>22.2476</ele>
        <time>2012-03-07T16:12:53Z</time>
      </trkpt>
      <trkpt lat="59.9767067" lon="17.7393683">
        <ele>22.2476</ele>
        <time>2012-03-07T16:13:03Z</time>
      </trkpt>
      <trkpt lat="59.9768116" lon="17.7393175">
        <ele>24.1703</ele>
        <time>2012-03-07T16:13:10Z</time>
      </trkpt>
      <trkpt lat="59.976921" lon="17.7392667">
        <ele>24.651</ele>
        <time>2012-03-07T16:13:18Z</time>
      </trkpt>
      <trkpt lat="59.97702" lon="17.7392055">
        <ele>23.209</ele>
        <time>2012-03-07T16:13:25Z</time>
      </trkpt>
      <trkpt lat="59.9771012" lon="17.7391627">
        <ele>22.2476</ele>
        <time>2012-03-07T16:13:31Z</time>
      </trkpt>
      <trkpt lat="59.977183" lon="17.7391001">
        <ele>20.8057</ele>
        <time>2012-03-07T16:13:37Z</time>
      </trkpt>
      <trkpt lat="59.9773047" lon="17.7390278">
        <ele>20.325</ele>
        <time>2012-03-07T16:13:46Z</time>
      </trkpt>
      <trkpt lat="59.9774425" lon="17.7389742">
        <ele>21.767</ele>
        <time>2012-03-07T16:13:55Z</time>
      </trkpt>
      <trkpt lat="59.9775666" lon="17.7389202">
        <ele>27.0543</ele>
        <time>2012-03-07T16:14:02Z</time>
      </trkpt>
      <trkpt lat="59.9776519" lon="17.7389231">
        <ele>28.4962</ele>
        <time>2012-03-07T16:14:07Z</time>
      </trkpt>
      <trkpt lat="59.9777383" lon="17.7389502">
        <ele>29.4575</ele>
        <time>2012-03-07T16:14:13Z</time>
      </trkpt>
      <trkpt lat="59.9778161" lon="17.7389861">
        <ele>30.4188</ele>
        <time>2012-03-07T16:14:19Z</time>
      </trkpt>
      <trkpt lat="59.9779083" lon="17.7390201">
        <ele>31.3801</ele>
        <time>2012-03-07T16:14:25Z</time>
      </trkpt>
      <trkpt lat="59.9779693" lon="17.7390611">
        <ele>29.9381</ele>
        <time>2012-03-07T16:14:29Z</time>
      </trkpt>
      <trkpt lat="59.9780627" lon="17.7390878">
        <ele>29.9381</ele>
        <time>2012-03-07T16:14:36Z</time>
      </trkpt>
      <trkpt lat="59.978155" lon="17.7391133">
        <ele>30.8995</ele>
        <time>2012-03-07T16:14:41Z</time>
      </trkpt>
      <trkpt lat="59.9781699" lon="17.7391223">
        <ele>30.4188</ele>
        <time>2012-03-07T16:14:42Z</time>
      </trkpt>
      <trkpt lat="59.9782579" lon="17.7391638">
        <ele>29.9381</ele>
        <time>2012-03-07T16:14:48Z</time>
      </trkpt>
      <trkpt lat="59.9783301" lon="17.7391854">
        <ele>28.4962</ele>
        <time>2012-03-07T16:14:53Z</time>
      </trkpt>
      <trkpt lat="59.9784511" lon="17.7392373">
        <ele>27.5349</ele>
        <time>2012-03-07T16:15:01Z</time>
      </trkpt>
      <trkpt lat="59.9785631" lon="17.739243">
        <ele>26.0929</ele>
        <time>2012-03-07T16:15:08Z</time>
      </trkpt>
      <trkpt lat="59.9786088" lon="17.7392377">
        <ele>24.1703</ele>
        <time>2012-03-07T16:15:11Z</time>
      </trkpt>
      <trkpt lat="59.9786292" lon="17.7392596">
        <ele>23.209</ele>
        <time>2012-03-07T16:15:13Z</time>
      </trkpt>
      <trkpt lat="59.9786924" lon="17.7392875">
        <ele>21.2864</ele>
        <time>2012-03-07T16:15:18Z</time>
      </trkpt>
      <trkpt lat="59.9787303" lon="17.7392923">
        <ele>18.4023</ele>
        <time>2012-03-07T16:15:22Z</time>
      </trkpt>
      <trkpt lat="59.9788517" lon="17.7392733">
        <ele>22.7283</ele>
        <time>2012-03-07T16:15:29Z</time>
      </trkpt>
      <trkpt lat="59.9789422" lon="17.7392435">
        <ele>25.1317</ele>
        <time>2012-03-07T16:15:34Z</time>
      </trkpt>
      <trkpt lat="59.9790355" lon="17.7391854">
        <ele>25.1317</ele>
        <time>2012-03-07T16:15:40Z</time>
      </trkpt>
      <trkpt lat="59.9791288" lon="17.7391163">
        <ele>25.1317</ele>
        <time>2012-03-07T16:15:47Z</time>
      </trkpt>
      <trkpt lat="59.9792106" lon="17.7390558">
        <ele>25.6123</ele>
        <time>2012-03-07T16:15:53Z</time>
      </trkpt>
      <trkpt lat="59.9793027" lon="17.7389851">
        <ele>24.1703</ele>
        <time>2012-03-07T16:16:00Z</time>
      </trkpt>
      <trkpt lat="59.9793943" lon="17.7389316">
        <ele>25.6123</ele>
        <time>2012-03-07T16:16:06Z</time>
      </trkpt>
      <trkpt lat="59.9794178" lon="17.738916">
        <ele>27.0543</ele>
        <time>2012-03-07T16:16:07Z</time>
      </trkpt>
      <trkpt lat="59.9795243" lon="17.7388436">
        <ele>31.8607</ele>
        <time>2012-03-07T16:16:13Z</time>
      </trkpt>
      <trkpt lat="59.9795441" lon="17.7388372">
        <ele>33.3029</ele>
        <time>2012-03-07T16:16:14Z</time>
      </trkpt>
      <trkpt lat="59.9796026" lon="17.7388188">
        <ele>33.3029</ele>
        <time>2012-03-07T16:16:18Z</time>
      </trkpt>
      <trkpt lat="59.9796922" lon="17.7388109">
        <ele>35.7061</ele>
        <time>2012-03-07T16:16:23Z</time>
      </trkpt>
      <trkpt lat="59.9797769" lon="17.7387617">
        <ele>36.1868</ele>
        <time>2012-03-07T16:16:29Z</time>
      </trkpt>
      <trkpt lat="59.9799054" lon="17.7387177">
        <ele>37.6287</ele>
        <time>2012-03-07T16:16:37Z</time>
      </trkpt>
      <trkpt lat="59.9799845" lon="17.7387192">
        <ele>36.6675</ele>
        <time>2012-03-07T16:16:42Z</time>
      </trkpt>
      <trkpt lat="59.9800931" lon="17.7387115">
        <ele>36.1868</ele>
        <time>2012-03-07T16:16:49Z</time>
      </trkpt>
      <trkpt lat="59.9801235" lon="17.738714">
        <ele>37.1481</ele>
        <time>2012-03-07T16:16:51Z</time>
      </trkpt>
      <trkpt lat="59.9802009" lon="17.7387237">
        <ele>37.6287</ele>
        <time>2012-03-07T16:16:56Z</time>
      </trkpt>
      <trkpt lat="59.9802918" lon="17.7387368">
        <ele>39.0707</ele>
        <time>2012-03-07T16:17:02Z</time>
      </trkpt>
      <trkpt lat="59.980372" lon="17.7387221">
        <ele>40.0321</ele>
        <time>2012-03-07T16:17:08Z</time>
      </trkpt>
      <trkpt lat="59.9804296" lon="17.7386985">
        <ele>41.474</ele>
        <time>2012-03-07T16:17:12Z</time>
      </trkpt>
      <trkpt lat="59.9804663" lon="17.7386812">
        <ele>41.9547</ele>
        <time>2012-03-07T16:17:14Z</time>
      </trkpt>
      <trkpt lat="59.9805813" lon="17.7386788">
        <ele>43.8773</ele>
        <time>2012-03-07T16:17:21Z</time>
      </trkpt>
      <trkpt lat="59.9806173" lon="17.7386778">
        <ele>43.8773</ele>
        <time>2012-03-07T16:17:23Z</time>
      </trkpt>
      <trkpt lat="59.9806698" lon="17.7386518">
        <ele>44.358</ele>
        <time>2012-03-07T16:17:27Z</time>
      </trkpt>
      <trkpt lat="59.9807869" lon="17.7386159">
        <ele>45.3192</ele>
        <time>2012-03-07T16:17:34Z</time>
      </trkpt>
      <trkpt lat="59.9808062" lon="17.738612">
        <ele>45.3192</ele>
        <time>2012-03-07T16:17:35Z</time>
      </trkpt>
      <trkpt lat="59.9808681" lon="17.7385815">
        <ele>43.8773</ele>
        <time>2012-03-07T16:17:39Z</time>
      </trkpt>
      <trkpt lat="59.9809142" lon="17.7385585">
        <ele>43.3966</ele>
        <time>2012-03-07T16:17:42Z</time>
      </trkpt>
      <trkpt lat="59.9809894" lon="17.7385336">
        <ele>42.4354</ele>
        <time>2012-03-07T16:17:48Z</time>
      </trkpt>
      <trkpt lat="59.981005" lon="17.7385271">
        <ele>42.4354</ele>
        <time>2012-03-07T16:17:49Z</time>
      </trkpt>
      <trkpt lat="59.9811105" lon="17.7384835">
        <ele>42.916</ele>
        <time>2012-03-07T16:17:56Z</time>
      </trkpt>
      <trkpt lat="59.9811282" lon="17.7384846">
        <ele>42.916</ele>
        <time>2012-03-07T16:17:57Z</time>
      </trkpt>
      <trkpt lat="59.9812092" lon="17.7384723">
        <ele>43.8773</ele>
        <time>2012-03-07T16:18:02Z</time>
      </trkpt>
      <trkpt lat="59.9813205" lon="17.738426">
        <ele>45.3192</ele>
        <time>2012-03-07T16:18:09Z</time>
      </trkpt>
      <trkpt lat="59.981433" lon="17.7383855">
        <ele>44.8386</ele>
        <time>2012-03-07T16:18:16Z</time>
      </trkpt>
      <trkpt lat="59.9815313" lon="17.7383777">
        <ele>44.358</ele>
        <time>2012-03-07T16:18:22Z</time>
      </trkpt>
      <trkpt lat="59.981628" lon="17.7383453">
        <ele>44.358</ele>
        <time>2012-03-07T16:18:29Z</time>
      </trkpt>
      <trkpt lat="59.9817427" lon="17.7382971">
        <ele>45.7999</ele>
        <time>2012-03-07T16:18:36Z</time>
      </trkpt>
      <trkpt lat="59.9818412" lon="17.7382378">
        <ele>47.7225</ele>
        <time>2012-03-07T16:18:43Z</time>
      </trkpt>
      <trkpt lat="59.9819443" lon="17.7381951">
        <ele>46.7612</ele>
        <time>2012-03-07T16:18:50Z</time>
      </trkpt>
      <trkpt lat="59.9820063" lon="17.7381555">
        <ele>45.3192</ele>
        <time>2012-03-07T16:18:54Z</time>
      </trkpt>
      <trkpt lat="59.982067" lon="17.7381358">
        <ele>44.8386</ele>
        <time>2012-03-07T16:18:58Z</time>
      </trkpt>
      <trkpt lat="59.982148" lon="17.7381155">
        <ele>42.916</ele>
        <time>2012-03-07T16:19:03Z</time>
      </trkpt>
      <trkpt lat="59.9821716" lon="17.7380949">
        <ele>42.4354</ele>
        <time>2012-03-07T16:19:05Z</time>
      </trkpt>
      <trkpt lat="59.9822362" lon="17.7380785">
        <ele>42.4354</ele>
        <time>2012-03-07T16:19:09Z</time>
      </trkpt>
      <trkpt lat="59.9823789" lon="17.7380479">
        <ele>43.8773</ele>
        <time>2012-03-07T16:19:17Z</time>
      </trkpt>
      <trkpt lat="59.9824822" lon="17.7380534">
        <ele>45.3192</ele>
        <time>2012-03-07T16:19:24Z</time>
      </trkpt>
      <trkpt lat="59.9824964" lon="17.7380534">
        <ele>45.7999</ele>
        <time>2012-03-07T16:19:25Z</time>
      </trkpt>
      <trkpt lat="59.9825604" lon="17.7380711">
        <ele>47.2418</ele>
        <time>2012-03-07T16:19:29Z</time>
      </trkpt>
      <trkpt lat="59.9826812" lon="17.73807">
        <ele>46.7612</ele>
        <time>2012-03-07T16:19:36Z</time>
      </trkpt>
      <trkpt lat="59.982736" lon="17.738069">
        <ele>47.2418</ele>
        <time>2012-03-07T16:19:40Z</time>
      </trkpt>
      <trkpt lat="59.9827863" lon="17.7380876">
        <ele>46.7612</ele>
        <time>2012-03-07T16:19:44Z</time>
      </trkpt>
      <trkpt lat="59.9828324" lon="17.7381198">
        <ele>46.2806</ele>
        <time>2012-03-07T16:19:48Z</time>
      </trkpt>
      <trkpt lat="59.9829139" lon="17.7381257">
        <ele>45.3192</ele>
        <time>2012-03-07T16:19:53Z</time>
      </trkpt>
      <trkpt lat="59.9829262" lon="17.7381639">
        <ele>44.358</ele>
        <time>2012-03-07T16:19:57Z</time>
      </trkpt>
      <trkpt lat="59.98288" lon="17.7381561">
        <ele>42.916</ele>
        <time>2012-03-07T16:20:01Z</time>
      </trkpt>
      <trkpt lat="59.982845" lon="17.7381617">
        <ele>41.474</ele>
        <time>2012-03-07T16:20:04Z</time>
      </trkpt>
      <trkpt lat="59.9827653" lon="17.7382065">
        <ele>38.5901</ele>
        <time>2012-03-07T16:20:09Z</time>
      </trkpt>
      <trkpt lat="59.9827175" lon="17.7382028">
        <ele>36.1868</ele>
        <time>2012-03-07T16:20:13Z</time>
      </trkpt>
      <trkpt lat="59.9826541" lon="17.7381884">
        <ele>31.3801</ele>
        <time>2012-03-07T16:20:18Z</time>
      </trkpt>
      <trkpt lat="59.9825652" lon="17.7381894">
        <ele>28.9769</ele>
        <time>2012-03-07T16:20:24Z</time>
      </trkpt>
      <trkpt lat="59.9825193" lon="17.7382167">
        <ele>29.4575</ele>
        <time>2012-03-07T16:20:27Z</time>
      </trkpt>
      <trkpt lat="59.9823782" lon="17.738266">
        <ele>27.5349</ele>
        <time>2012-03-07T16:20:35Z</time>
      </trkpt>
      <trkpt lat="59.9822936" lon="17.7382971">
        <ele>28.0155</ele>
        <time>2012-03-07T16:20:40Z</time>
      </trkpt>
      <trkpt lat="59.982281" lon="17.7382991">
        <ele>27.5349</ele>
        <time>2012-03-07T16:20:41Z</time>
      </trkpt>
      <trkpt lat="59.982186" lon="17.7383634">
        <ele>28.0155</ele>
        <time>2012-03-07T16:20:47Z</time>
      </trkpt>
      <trkpt lat="59.9820815" lon="17.7383323">
        <ele>28.4962</ele>
        <time>2012-03-07T16:20:54Z</time>
      </trkpt>
      <trkpt lat="59.9820672" lon="17.738324">
        <ele>28.4962</ele>
        <time>2012-03-07T16:20:55Z</time>
      </trkpt>
      <trkpt lat="59.9819887" lon="17.7382587">
        <ele>28.4962</ele>
        <time>2012-03-07T16:21:00Z</time>
      </trkpt>
      <trkpt lat="59.9819395" lon="17.7382094">
        <ele>26.5736</ele>
        <time>2012-03-07T16:21:04Z</time>
      </trkpt>
      <trkpt lat="59.981886" lon="17.7382712">
        <ele>27.0543</ele>
        <time>2012-03-07T16:21:08Z</time>
      </trkpt>
      <trkpt lat="59.981846" lon="17.7383228">
        <ele>26.0929</ele>
        <time>2012-03-07T16:21:11Z</time>
      </trkpt>
      <trkpt lat="59.9817945" lon="17.7383974">
        <ele>27.0543</ele>
        <time>2012-03-07T16:21:14Z</time>
      </trkpt>
      <trkpt lat="59.9817146" lon="17.7384404">
        <ele>28.9769</ele>
        <time>2012-03-07T16:21:18Z</time>
      </trkpt>
      <trkpt lat="59.9816663" lon="17.7384308">
        <ele>28.9769</ele>
        <time>2012-03-07T16:21:21Z</time>
      </trkpt>
      <trkpt lat="59.9816223" lon="17.7384628">
        <ele>28.4962</ele>
        <time>2012-03-07T16:21:23Z</time>
      </trkpt>
      <trkpt lat="59.9815484" lon="17.7385111">
        <ele>28.4962</ele>
        <time>2012-03-07T16:21:27Z</time>
      </trkpt>
      <trkpt lat="59.9814562" lon="17.7385401">
        <ele>28.9769</ele>
        <time>2012-03-07T16:21:32Z</time>
      </trkpt>
      <trkpt lat="59.9813646" lon="17.7385869">
        <ele>29.9381</ele>
        <time>2012-03-07T16:21:37Z</time>
      </trkpt>
      <trkpt lat="59.9812568" lon="17.7386548">
        <ele>30.4188</ele>
        <time>2012-03-07T16:21:42Z</time>
      </trkpt>
      <trkpt lat="59.9811494" lon="17.7387454">
        <ele>32.8223</ele>
        <time>2012-03-07T16:21:47Z</time>
      </trkpt>
      <trkpt lat="59.9810768" lon="17.7387472">
        <ele>32.3416</ele>
        <time>2012-03-07T16:21:52Z</time>
      </trkpt>
      <trkpt lat="59.9809639" lon="17.7388093">
        <ele>35.7061</ele>
        <time>2012-03-07T16:21:58Z</time>
      </trkpt>
      <trkpt lat="59.9809452" lon="17.7388086">
        <ele>36.1868</ele>
        <time>2012-03-07T16:21:59Z</time>
      </trkpt>
      <trkpt lat="59.9808636" lon="17.7388555">
        <ele>36.6675</ele>
        <time>2012-03-07T16:22:04Z</time>
      </trkpt>
      <trkpt lat="59.9808316" lon="17.7388067">
        <ele>36.6675</ele>
        <time>2012-03-07T16:22:06Z</time>
      </trkpt>
      <trkpt lat="59.9807777" lon="17.7387751">
        <ele>37.1481</ele>
        <time>2012-03-07T16:22:09Z</time>
      </trkpt>
      <trkpt lat="59.9807289" lon="17.7387403">
        <ele>37.1481</ele>
        <time>2012-03-07T16:22:12Z</time>
      </trkpt>
      <trkpt lat="59.9806771" lon="17.738739">
        <ele>33.3029</ele>
        <time>2012-03-07T16:22:17Z</time>
      </trkpt>
      <trkpt lat="59.980574" lon="17.7387805">
        <ele>35.7061</ele>
        <time>2012-03-07T16:22:23Z</time>
      </trkpt>
      <trkpt lat="59.9805296" lon="17.7387858">
        <ele>34.7449</ele>
        <time>2012-03-07T16:22:27Z</time>
      </trkpt>
      <trkpt lat="59.9804601" lon="17.738826">
        <ele>32.8223</ele>
        <time>2012-03-07T16:22:33Z</time>
      </trkpt>
      <trkpt lat="59.9803943" lon="17.7388555">
        <ele>31.8607</ele>
        <time>2012-03-07T16:22:38Z</time>
      </trkpt>
      <trkpt lat="59.9803698" lon="17.7388692">
        <ele>30.8995</ele>
        <time>2012-03-07T16:22:40Z</time>
      </trkpt>
      <trkpt lat="59.9803374" lon="17.7388708">
        <ele>28.9769</ele>
        <time>2012-03-07T16:22:43Z</time>
      </trkpt>
      <trkpt lat="59.9803046" lon="17.7388494">
        <ele>27.0543</ele>
        <time>2012-03-07T16:22:46Z</time>
      </trkpt>
      <trkpt lat="59.9802332" lon="17.7388722">
        <ele>24.651</ele>
        <time>2012-03-07T16:22:51Z</time>
      </trkpt>
      <trkpt lat="59.9801518" lon="17.7388651">
        <ele>22.7283</ele>
        <time>2012-03-07T16:22:57Z</time>
      </trkpt>
      <trkpt lat="59.9801042" lon="17.7388534">
        <ele>22.2476</ele>
        <time>2012-03-07T16:23:00Z</time>
      </trkpt>
      <trkpt lat="59.9800839" lon="17.7388664">
        <ele>21.767</ele>
        <time>2012-03-07T16:23:02Z</time>
      </trkpt>
      <trkpt lat="59.9800104" lon="17.7388398">
        <ele>21.2864</ele>
        <time>2012-03-07T16:23:07Z</time>
      </trkpt>
      <trkpt lat="59.9799261" lon="17.7388342">
        <ele>21.2864</ele>
        <time>2012-03-07T16:23:13Z</time>
      </trkpt>
      <trkpt lat="59.9798348" lon="17.738858">
        <ele>23.6896</ele>
        <time>2012-03-07T16:23:18Z</time>
      </trkpt>
      <trkpt lat="59.9798049" lon="17.7388565">
        <ele>24.651</ele>
        <time>2012-03-07T16:23:20Z</time>
      </trkpt>
      <trkpt lat="59.9797156" lon="17.7388606">
        <ele>23.6896</ele>
        <time>2012-03-07T16:23:26Z</time>
      </trkpt>
      <trkpt lat="59.9796146" lon="17.7388923">
        <ele>27.0543</ele>
        <time>2012-03-07T16:23:32Z</time>
      </trkpt>
      <trkpt lat="59.9795706" lon="17.7389082">
        <ele>27.0543</ele>
        <time>2012-03-07T16:23:35Z</time>
      </trkpt>
      <trkpt lat="59.9794681" lon="17.7389803">
        <ele>26.5736</ele>
        <time>2012-03-07T16:23:42Z</time>
      </trkpt>
      <trkpt lat="59.979408" lon="17.7390392">
        <ele>27.0543</ele>
        <time>2012-03-07T16:23:46Z</time>
      </trkpt>
      <trkpt lat="59.9793894" lon="17.7390868">
        <ele>28.9769</ele>
        <time>2012-03-07T16:23:49Z</time>
      </trkpt>
      <trkpt lat="59.979304" lon="17.7391376">
        <ele>30.4188</ele>
        <time>2012-03-07T16:23:54Z</time>
      </trkpt>
      <trkpt lat="59.9792329" lon="17.7392054">
        <ele>31.8607</ele>
        <time>2012-03-07T16:23:58Z</time>
      </trkpt>
      <trkpt lat="59.979151" lon="17.7392697">
        <ele>32.8223</ele>
        <time>2012-03-07T16:24:03Z</time>
      </trkpt>
      <trkpt lat="59.9790656" lon="17.7392845">
        <ele>31.3801</ele>
        <time>2012-03-07T16:24:09Z</time>
      </trkpt>
      <trkpt lat="59.9789789" lon="17.7393485">
        <ele>31.3801</ele>
        <time>2012-03-07T16:24:14Z</time>
      </trkpt>
      <trkpt lat="59.9789644" lon="17.7393617">
        <ele>31.3801</ele>
        <time>2012-03-07T16:24:15Z</time>
      </trkpt>
    </trkseg>
  </trk>
</gpx>